<?xml version="1.0" encoding="UTF-8" standalone="no" ?>
<gpx xmlns="http://www.topografix.com/GPX/1/1" xmlns:xsi="http://www.w3.org/2001/XMLSchema-instance" xsi:schemaLocation="http://www.topografix.com/GPX/1/1 http://www.topografix.com/GPX/1/1/gpx.xsd" version="1.1" creator="VisuGPX - https://www.visugpx.com">
  <metadata>
    <name>Boucle Murs Erigné- St Melaine</name>
    <desc><![CDATA[Région d'Angers]]></desc>
  </metadata>
  <trk>
    <name><![CDATA[Boucle Murs Erigné- St Melaine_1]]></name>
    <trkseg>
      <trkpt lat="47.40903" lon="-0.52489">
        <ele>19</ele>
        <time>2021-05-12T20:53:30Z</time>
      </trkpt>
      <trkpt lat="47.40897" lon="-0.52501">
        <ele>19</ele>
        <time>2021-05-12T20:53:32Z</time>
      </trkpt>
      <trkpt lat="47.40893" lon="-0.52504">
        <ele>19</ele>
        <time>2021-05-12T20:53:33Z</time>
      </trkpt>
      <trkpt lat="47.40873" lon="-0.52513">
        <ele>19</ele>
        <time>2021-05-12T20:53:37Z</time>
      </trkpt>
      <trkpt lat="47.40793" lon="-0.52545">
        <ele>19</ele>
        <time>2021-05-12T20:53:54Z</time>
      </trkpt>
      <trkpt lat="47.4071" lon="-0.52571">
        <ele>18.4</ele>
        <time>2021-05-12T20:54:11Z</time>
      </trkpt>
      <trkpt lat="47.40606" lon="-0.52607">
        <ele>20.4</ele>
        <time>2021-05-12T20:54:32Z</time>
      </trkpt>
      <trkpt lat="47.4058" lon="-0.52635">
        <ele>20.6</ele>
        <time>2021-05-12T20:54:38Z</time>
      </trkpt>
      <trkpt lat="47.40572" lon="-0.5265">
        <ele>20.6</ele>
        <time>2021-05-12T20:54:41Z</time>
      </trkpt>
      <trkpt lat="47.40566" lon="-0.52666">
        <ele>20.4</ele>
        <time>2021-05-12T20:54:44Z</time>
      </trkpt>
      <trkpt lat="47.40552" lon="-0.52709">
        <ele>20.2</ele>
        <time>2021-05-12T20:54:50Z</time>
      </trkpt>
      <trkpt lat="47.40547" lon="-0.52768">
        <ele>19.4</ele>
        <time>2021-05-12T20:54:58Z</time>
      </trkpt>
      <trkpt lat="47.4054" lon="-0.52802">
        <ele>19.4</ele>
        <time>2021-05-12T20:55:03Z</time>
      </trkpt>
      <trkpt lat="47.40538" lon="-0.52809">
        <ele>19.4</ele>
        <time>2021-05-12T20:55:04Z</time>
      </trkpt>
      <trkpt lat="47.40533" lon="-0.52832">
        <ele>19.6</ele>
        <time>2021-05-12T20:55:07Z</time>
      </trkpt>
      <trkpt lat="47.40529" lon="-0.52845">
        <ele>19.6</ele>
        <time>2021-05-12T20:55:09Z</time>
      </trkpt>
      <trkpt lat="47.40499" lon="-0.52899">
        <ele>19.4</ele>
        <time>2021-05-12T20:55:19Z</time>
      </trkpt>
      <trkpt lat="47.40496" lon="-0.52911">
        <ele>19.4</ele>
        <time>2021-05-12T20:55:20Z</time>
      </trkpt>
      <trkpt lat="47.4048" lon="-0.52938">
        <ele>19.6</ele>
        <time>2021-05-12T20:55:25Z</time>
      </trkpt>
      <trkpt lat="47.40462" lon="-0.52974">
        <ele>19.8</ele>
        <time>2021-05-12T20:55:31Z</time>
      </trkpt>
      <trkpt lat="47.40449" lon="-0.53004">
        <ele>19.8</ele>
        <time>2021-05-12T20:55:36Z</time>
      </trkpt>
      <trkpt lat="47.40429" lon="-0.53045">
        <ele>20.2</ele>
        <time>2021-05-12T20:55:43Z</time>
      </trkpt>
      <trkpt lat="47.40403" lon="-0.53104">
        <ele>18.8</ele>
        <time>2021-05-12T20:55:53Z</time>
      </trkpt>
      <trkpt lat="47.40378" lon="-0.53181">
        <ele>18.2</ele>
        <time>2021-05-12T20:56:04Z</time>
      </trkpt>
      <trkpt lat="47.40375" lon="-0.53196">
        <ele>18.2</ele>
        <time>2021-05-12T20:56:06Z</time>
      </trkpt>
      <trkpt lat="47.40375" lon="-0.53203">
        <ele>18.2</ele>
        <time>2021-05-12T20:56:07Z</time>
      </trkpt>
      <trkpt lat="47.40377" lon="-0.5321">
        <ele>18.4</ele>
        <time>2021-05-12T20:56:08Z</time>
      </trkpt>
      <trkpt lat="47.4038" lon="-0.53215">
        <ele>18.4</ele>
        <time>2021-05-12T20:56:09Z</time>
      </trkpt>
      <trkpt lat="47.40384" lon="-0.53218">
        <ele>18.2</ele>
        <time>2021-05-12T20:56:10Z</time>
      </trkpt>
      <trkpt lat="47.40399" lon="-0.53224">
        <ele>18</ele>
        <time>2021-05-12T20:56:13Z</time>
      </trkpt>
      <trkpt lat="47.40404" lon="-0.53227">
        <ele>18</ele>
        <time>2021-05-12T20:56:14Z</time>
      </trkpt>
      <trkpt lat="47.40411" lon="-0.53238">
        <ele>18</ele>
        <time>2021-05-12T20:56:16Z</time>
      </trkpt>
      <trkpt lat="47.40416" lon="-0.53253">
        <ele>18</ele>
        <time>2021-05-12T20:56:18Z</time>
      </trkpt>
      <trkpt lat="47.40416" lon="-0.53261">
        <ele>18</ele>
        <time>2021-05-12T20:56:20Z</time>
      </trkpt>
      <trkpt lat="47.40415" lon="-0.53276">
        <ele>18</ele>
        <time>2021-05-12T20:56:22Z</time>
      </trkpt>
      <trkpt lat="47.40399" lon="-0.53373">
        <ele>17.2</ele>
        <time>2021-05-12T20:56:35Z</time>
      </trkpt>
      <trkpt lat="47.40396" lon="-0.53385">
        <ele>17</ele>
        <time>2021-05-12T20:56:37Z</time>
      </trkpt>
      <trkpt lat="47.40389" lon="-0.53389">
        <ele>17.2</ele>
        <time>2021-05-12T20:56:38Z</time>
      </trkpt>
      <trkpt lat="47.40389" lon="-0.53401">
        <ele>17</ele>
        <time>2021-05-12T20:56:40Z</time>
      </trkpt>
      <trkpt lat="47.40379" lon="-0.53467">
        <ele>17.2</ele>
        <time>2021-05-12T20:56:49Z</time>
      </trkpt>
      <trkpt lat="47.4037" lon="-0.53547">
        <ele>17.8</ele>
        <time>2021-05-12T20:57:00Z</time>
      </trkpt>
      <trkpt lat="47.40371" lon="-0.53555">
        <ele>17.6</ele>
        <time>2021-05-12T20:57:01Z</time>
      </trkpt>
      <trkpt lat="47.40379" lon="-0.53592">
        <ele>17.2</ele>
        <time>2021-05-12T20:57:07Z</time>
      </trkpt>
      <trkpt lat="47.40393" lon="-0.53626">
        <ele>17</ele>
        <time>2021-05-12T20:57:12Z</time>
      </trkpt>
      <trkpt lat="47.40397" lon="-0.53641">
        <ele>17</ele>
        <time>2021-05-12T20:57:14Z</time>
      </trkpt>
      <trkpt lat="47.40399" lon="-0.53658">
        <ele>17</ele>
        <time>2021-05-12T20:57:16Z</time>
      </trkpt>
      <trkpt lat="47.404" lon="-0.53736">
        <ele>17.8</ele>
        <time>2021-05-12T20:57:27Z</time>
      </trkpt>
      <trkpt lat="47.40403" lon="-0.53785">
        <ele>18</ele>
        <time>2021-05-12T20:57:34Z</time>
      </trkpt>
      <trkpt lat="47.40401" lon="-0.53831">
        <ele>17.8</ele>
        <time>2021-05-12T20:57:40Z</time>
      </trkpt>
      <trkpt lat="47.40402" lon="-0.53895">
        <ele>17.6</ele>
        <time>2021-05-12T20:57:49Z</time>
      </trkpt>
      <trkpt lat="47.40405" lon="-0.5393">
        <ele>17.4</ele>
        <time>2021-05-12T20:57:54Z</time>
      </trkpt>
      <trkpt lat="47.40409" lon="-0.5397">
        <ele>17.4</ele>
        <time>2021-05-12T20:57:59Z</time>
      </trkpt>
      <trkpt lat="47.4042" lon="-0.54031">
        <ele>17</ele>
        <time>2021-05-12T20:58:08Z</time>
      </trkpt>
      <trkpt lat="47.4042" lon="-0.54048">
        <ele>17</ele>
        <time>2021-05-12T20:58:10Z</time>
      </trkpt>
      <trkpt lat="47.40418" lon="-0.54056">
        <ele>17.2</ele>
        <time>2021-05-12T20:58:11Z</time>
      </trkpt>
      <trkpt lat="47.40414" lon="-0.54072">
        <ele>17.4</ele>
        <time>2021-05-12T20:58:13Z</time>
      </trkpt>
      <trkpt lat="47.40397" lon="-0.54111">
        <ele>18</ele>
        <time>2021-05-12T20:58:20Z</time>
      </trkpt>
      <trkpt lat="47.40396" lon="-0.54119">
        <ele>18</ele>
        <time>2021-05-12T20:58:21Z</time>
      </trkpt>
      <trkpt lat="47.40391" lon="-0.54208">
        <ele>19.8</ele>
        <time>2021-05-12T20:58:33Z</time>
      </trkpt>
      <trkpt lat="47.40389" lon="-0.54249">
        <ele>20.6</ele>
        <time>2021-05-12T20:58:38Z</time>
      </trkpt>
      <trkpt lat="47.40392" lon="-0.54279">
        <ele>20.8</ele>
        <time>2021-05-12T20:58:43Z</time>
      </trkpt>
      <trkpt lat="47.40393" lon="-0.54312">
        <ele>21.2</ele>
        <time>2021-05-12T20:58:47Z</time>
      </trkpt>
      <trkpt lat="47.40391" lon="-0.54381">
        <ele>21</ele>
        <time>2021-05-12T20:58:56Z</time>
      </trkpt>
      <trkpt lat="47.40379" lon="-0.54423">
        <ele>25</ele>
        <time>2021-05-12T20:59:03Z</time>
      </trkpt>
      <trkpt lat="47.40384" lon="-0.54447">
        <ele>24.4</ele>
        <time>2021-05-12T20:59:06Z</time>
      </trkpt>
      <trkpt lat="47.4038" lon="-0.54456">
        <ele>24.8</ele>
        <time>2021-05-12T20:59:07Z</time>
      </trkpt>
      <trkpt lat="47.40383" lon="-0.54537">
        <ele>22.4</ele>
        <time>2021-05-12T20:59:18Z</time>
      </trkpt>
      <trkpt lat="47.40382" lon="-0.54547">
        <ele>22.8</ele>
        <time>2021-05-12T20:59:20Z</time>
      </trkpt>
      <trkpt lat="47.40379" lon="-0.54555">
        <ele>23.8</ele>
        <time>2021-05-12T20:59:21Z</time>
      </trkpt>
      <trkpt lat="47.40378" lon="-0.54561">
        <ele>24.2</ele>
        <time>2021-05-12T20:59:22Z</time>
      </trkpt>
      <trkpt lat="47.40381" lon="-0.54573">
        <ele>24.2</ele>
        <time>2021-05-12T20:59:24Z</time>
      </trkpt>
      <trkpt lat="47.40382" lon="-0.54595">
        <ele>24</ele>
        <time>2021-05-12T20:59:27Z</time>
      </trkpt>
      <trkpt lat="47.40379" lon="-0.54639">
        <ele>24.4</ele>
        <time>2021-05-12T20:59:33Z</time>
      </trkpt>
      <trkpt lat="47.40376" lon="-0.54652">
        <ele>24.8</ele>
        <time>2021-05-12T20:59:35Z</time>
      </trkpt>
      <trkpt lat="47.40373" lon="-0.54672">
        <ele>24.2</ele>
        <time>2021-05-12T20:59:37Z</time>
      </trkpt>
      <trkpt lat="47.40372" lon="-0.5486">
        <ele>17.6</ele>
        <time>2021-05-12T21:00:03Z</time>
      </trkpt>
      <trkpt lat="47.40365" lon="-0.54872">
        <ele>17.8</ele>
        <time>2021-05-12T21:00:05Z</time>
      </trkpt>
      <trkpt lat="47.40364" lon="-0.54878">
        <ele>17.8</ele>
        <time>2021-05-12T21:00:06Z</time>
      </trkpt>
      <trkpt lat="47.40332" lon="-0.54929">
        <ele>18</ele>
        <time>2021-05-12T21:00:15Z</time>
      </trkpt>
      <trkpt lat="47.40306" lon="-0.54976">
        <ele>17.8</ele>
        <time>2021-05-12T21:00:23Z</time>
      </trkpt>
      <trkpt lat="47.40294" lon="-0.54989">
        <ele>17.8</ele>
        <time>2021-05-12T21:00:27Z</time>
      </trkpt>
      <trkpt lat="47.40283" lon="-0.54996">
        <ele>17.6</ele>
        <time>2021-05-12T21:00:29Z</time>
      </trkpt>
      <trkpt lat="47.40224" lon="-0.55025">
        <ele>18</ele>
        <time>2021-05-12T21:00:41Z</time>
      </trkpt>
      <trkpt lat="47.40199" lon="-0.55036">
        <ele>18</ele>
        <time>2021-05-12T21:00:47Z</time>
      </trkpt>
      <trkpt lat="47.40142" lon="-0.55049">
        <ele>18</ele>
        <time>2021-05-12T21:00:58Z</time>
      </trkpt>
      <trkpt lat="47.40085" lon="-0.55069">
        <ele>18</ele>
        <time>2021-05-12T21:01:10Z</time>
      </trkpt>
      <trkpt lat="47.40025" lon="-0.55092">
        <ele>18</ele>
        <time>2021-05-12T21:01:22Z</time>
      </trkpt>
      <trkpt lat="47.39984" lon="-0.55105">
        <ele>18</ele>
        <time>2021-05-12T21:01:31Z</time>
      </trkpt>
      <trkpt lat="47.39964" lon="-0.55103">
        <ele>18</ele>
        <time>2021-05-12T21:01:35Z</time>
      </trkpt>
      <trkpt lat="47.39903" lon="-0.55119">
        <ele>18</ele>
        <time>2021-05-12T21:01:47Z</time>
      </trkpt>
      <trkpt lat="47.39892" lon="-0.55124">
        <ele>18</ele>
        <time>2021-05-12T21:01:49Z</time>
      </trkpt>
      <trkpt lat="47.39857" lon="-0.55144">
        <ele>18</ele>
        <time>2021-05-12T21:01:57Z</time>
      </trkpt>
      <trkpt lat="47.39851" lon="-0.55145">
        <ele>18</ele>
        <time>2021-05-12T21:01:58Z</time>
      </trkpt>
      <trkpt lat="47.39841" lon="-0.55141">
        <ele>18</ele>
        <time>2021-05-12T21:02:00Z</time>
      </trkpt>
      <trkpt lat="47.39836" lon="-0.55138">
        <ele>18</ele>
        <time>2021-05-12T21:02:01Z</time>
      </trkpt>
      <trkpt lat="47.39826" lon="-0.55122">
        <ele>18</ele>
        <time>2021-05-12T21:02:04Z</time>
      </trkpt>
      <trkpt lat="47.39822" lon="-0.55117">
        <ele>18</ele>
        <time>2021-05-12T21:02:05Z</time>
      </trkpt>
      <trkpt lat="47.39817" lon="-0.55116">
        <ele>18</ele>
        <time>2021-05-12T21:02:06Z</time>
      </trkpt>
      <trkpt lat="47.39738" lon="-0.55148">
        <ele>19</ele>
        <time>2021-05-12T21:02:22Z</time>
      </trkpt>
      <trkpt lat="47.39707" lon="-0.55176">
        <ele>19</ele>
        <time>2021-05-12T21:02:30Z</time>
      </trkpt>
      <trkpt lat="47.39696" lon="-0.55191">
        <ele>19</ele>
        <time>2021-05-12T21:02:33Z</time>
      </trkpt>
      <trkpt lat="47.39661" lon="-0.55262">
        <ele>19.4</ele>
        <time>2021-05-12T21:02:45Z</time>
      </trkpt>
      <trkpt lat="47.39627" lon="-0.55305">
        <ele>21</ele>
        <time>2021-05-12T21:02:54Z</time>
      </trkpt>
      <trkpt lat="47.39619" lon="-0.55306">
        <ele>22</ele>
        <time>2021-05-12T21:02:55Z</time>
      </trkpt>
      <trkpt lat="47.39608" lon="-0.55312">
        <ele>23.4</ele>
        <time>2021-05-12T21:02:58Z</time>
      </trkpt>
      <trkpt lat="47.396" lon="-0.55312">
        <ele>24.4</ele>
        <time>2021-05-12T21:02:59Z</time>
      </trkpt>
      <trkpt lat="47.39591" lon="-0.55316">
        <ele>25.4</ele>
        <time>2021-05-12T21:03:01Z</time>
      </trkpt>
      <trkpt lat="47.39586" lon="-0.55303">
        <ele>26.6</ele>
        <time>2021-05-12T21:03:03Z</time>
      </trkpt>
      <trkpt lat="47.39559" lon="-0.55247">
        <ele>30.4</ele>
        <time>2021-05-12T21:03:12Z</time>
      </trkpt>
      <trkpt lat="47.39547" lon="-0.55202">
        <ele>31.6</ele>
        <time>2021-05-12T21:03:19Z</time>
      </trkpt>
      <trkpt lat="47.39548" lon="-0.55187">
        <ele>31.4</ele>
        <time>2021-05-12T21:03:21Z</time>
      </trkpt>
      <trkpt lat="47.39578" lon="-0.55086">
        <ele>27.8</ele>
        <time>2021-05-12T21:03:36Z</time>
      </trkpt>
      <trkpt lat="47.39584" lon="-0.55061">
        <ele>27.4</ele>
        <time>2021-05-12T21:03:40Z</time>
      </trkpt>
      <trkpt lat="47.39585" lon="-0.55053">
        <ele>27.4</ele>
        <time>2021-05-12T21:03:41Z</time>
      </trkpt>
      <trkpt lat="47.3959" lon="-0.54952">
        <ele>26</ele>
        <time>2021-05-12T21:03:55Z</time>
      </trkpt>
      <trkpt lat="47.39588" lon="-0.54921">
        <ele>25.2</ele>
        <time>2021-05-12T21:03:59Z</time>
      </trkpt>
      <trkpt lat="47.39578" lon="-0.54832">
        <ele>25</ele>
        <time>2021-05-12T21:04:11Z</time>
      </trkpt>
      <trkpt lat="47.39557" lon="-0.5475">
        <ele>28.8</ele>
        <time>2021-05-12T21:04:23Z</time>
      </trkpt>
      <trkpt lat="47.39521" lon="-0.54676">
        <ele>31.2</ele>
        <time>2021-05-12T21:04:35Z</time>
      </trkpt>
      <trkpt lat="47.39475" lon="-0.5462">
        <ele>30.4</ele>
        <time>2021-05-12T21:04:47Z</time>
      </trkpt>
      <trkpt lat="47.39438" lon="-0.54582">
        <ele>28.2</ele>
        <time>2021-05-12T21:04:56Z</time>
      </trkpt>
      <trkpt lat="47.3936" lon="-0.54507">
        <ele>20.4</ele>
        <time>2021-05-12T21:05:15Z</time>
      </trkpt>
      <trkpt lat="47.39319" lon="-0.54473">
        <ele>18.4</ele>
        <time>2021-05-12T21:05:24Z</time>
      </trkpt>
      <trkpt lat="47.39315" lon="-0.54468">
        <ele>18.6</ele>
        <time>2021-05-12T21:05:25Z</time>
      </trkpt>
      <trkpt lat="47.39315" lon="-0.54457">
        <ele>19</ele>
        <time>2021-05-12T21:05:27Z</time>
      </trkpt>
      <trkpt lat="47.39319" lon="-0.54447">
        <ele>19.8</ele>
        <time>2021-05-12T21:05:29Z</time>
      </trkpt>
      <trkpt lat="47.39332" lon="-0.54407">
        <ele>23</ele>
        <time>2021-05-12T21:05:35Z</time>
      </trkpt>
      <trkpt lat="47.39338" lon="-0.54384">
        <ele>25</ele>
        <time>2021-05-12T21:05:38Z</time>
      </trkpt>
      <trkpt lat="47.39352" lon="-0.54343">
        <ele>29</ele>
        <time>2021-05-12T21:05:44Z</time>
      </trkpt>
      <trkpt lat="47.39359" lon="-0.54331">
        <ele>29.6</ele>
        <time>2021-05-12T21:05:46Z</time>
      </trkpt>
      <trkpt lat="47.39377" lon="-0.54314">
        <ele>30</ele>
        <time>2021-05-12T21:05:51Z</time>
      </trkpt>
      <trkpt lat="47.39408" lon="-0.54249">
        <ele>33.8</ele>
        <time>2021-05-12T21:06:01Z</time>
      </trkpt>
      <trkpt lat="47.39427" lon="-0.54173">
        <ele>36</ele>
        <time>2021-05-12T21:06:12Z</time>
      </trkpt>
      <trkpt lat="47.3943" lon="-0.54028">
        <ele>40.4</ele>
        <time>2021-05-12T21:06:32Z</time>
      </trkpt>
      <trkpt lat="47.3941" lon="-0.53947">
        <ele>44.8</ele>
        <time>2021-05-12T21:06:44Z</time>
      </trkpt>
      <trkpt lat="47.39408" lon="-0.53925">
        <ele>45.6</ele>
        <time>2021-05-12T21:06:47Z</time>
      </trkpt>
      <trkpt lat="47.39453" lon="-0.53875">
        <ele>50.6</ele>
        <time>2021-05-12T21:06:58Z</time>
      </trkpt>
      <trkpt lat="47.39456" lon="-0.53868">
        <ele>51.2</ele>
        <time>2021-05-12T21:06:59Z</time>
      </trkpt>
      <trkpt lat="47.39456" lon="-0.53862">
        <ele>51.2</ele>
        <time>2021-05-12T21:07:00Z</time>
      </trkpt>
      <trkpt lat="47.39444" lon="-0.53835">
        <ele>51.2</ele>
        <time>2021-05-12T21:07:04Z</time>
      </trkpt>
      <trkpt lat="47.39445" lon="-0.53827">
        <ele>51.6</ele>
        <time>2021-05-12T21:07:06Z</time>
      </trkpt>
      <trkpt lat="47.39458" lon="-0.53808">
        <ele>52.6</ele>
        <time>2021-05-12T21:07:09Z</time>
      </trkpt>
      <trkpt lat="47.39516" lon="-0.53735">
        <ele>55.8</ele>
        <time>2021-05-12T21:07:24Z</time>
      </trkpt>
      <trkpt lat="47.39515" lon="-0.5373">
        <ele>56</ele>
        <time>2021-05-12T21:07:25Z</time>
      </trkpt>
      <trkpt lat="47.39512" lon="-0.5373">
        <ele>55.8</ele>
        <time>2021-05-12T21:07:26Z</time>
      </trkpt>
      <trkpt lat="47.39507" lon="-0.53739">
        <ele>55.4</ele>
        <time>2021-05-12T21:07:28Z</time>
      </trkpt>
      <trkpt lat="47.39459" lon="-0.53787">
        <ele>53.2</ele>
        <time>2021-05-12T21:07:39Z</time>
      </trkpt>
      <trkpt lat="47.39432" lon="-0.53802">
        <ele>51.6</ele>
        <time>2021-05-12T21:07:45Z</time>
      </trkpt>
      <trkpt lat="47.39338" lon="-0.53841">
        <ele>49.8</ele>
        <time>2021-05-12T21:08:04Z</time>
      </trkpt>
      <trkpt lat="47.39294" lon="-0.53855">
        <ele>51.4</ele>
        <time>2021-05-12T21:08:13Z</time>
      </trkpt>
      <trkpt lat="47.3929" lon="-0.53854">
        <ele>51.6</ele>
        <time>2021-05-12T21:08:14Z</time>
      </trkpt>
      <trkpt lat="47.39287" lon="-0.53851">
        <ele>51.8</ele>
        <time>2021-05-12T21:08:15Z</time>
      </trkpt>
      <trkpt lat="47.39285" lon="-0.53846">
        <ele>52</ele>
        <time>2021-05-12T21:08:16Z</time>
      </trkpt>
      <trkpt lat="47.39285" lon="-0.53839">
        <ele>52</ele>
        <time>2021-05-12T21:08:17Z</time>
      </trkpt>
      <trkpt lat="47.39289" lon="-0.53807">
        <ele>52.2</ele>
        <time>2021-05-12T21:08:21Z</time>
      </trkpt>
      <trkpt lat="47.39292" lon="-0.53799">
        <ele>52.2</ele>
        <time>2021-05-12T21:08:22Z</time>
      </trkpt>
      <trkpt lat="47.39298" lon="-0.53785">
        <ele>52.2</ele>
        <time>2021-05-12T21:08:25Z</time>
      </trkpt>
      <trkpt lat="47.39307" lon="-0.53773">
        <ele>52.2</ele>
        <time>2021-05-12T21:08:27Z</time>
      </trkpt>
      <trkpt lat="47.39341" lon="-0.53732">
        <ele>52.2</ele>
        <time>2021-05-12T21:08:36Z</time>
      </trkpt>
      <trkpt lat="47.39345" lon="-0.53724">
        <ele>52.2</ele>
        <time>2021-05-12T21:08:37Z</time>
      </trkpt>
      <trkpt lat="47.39347" lon="-0.53715">
        <ele>52.6</ele>
        <time>2021-05-12T21:08:39Z</time>
      </trkpt>
      <trkpt lat="47.39347" lon="-0.53706">
        <ele>52.8</ele>
        <time>2021-05-12T21:08:40Z</time>
      </trkpt>
      <trkpt lat="47.39346" lon="-0.53697">
        <ele>53</ele>
        <time>2021-05-12T21:08:41Z</time>
      </trkpt>
      <trkpt lat="47.39341" lon="-0.5368">
        <ele>53.4</ele>
        <time>2021-05-12T21:08:44Z</time>
      </trkpt>
      <trkpt lat="47.39299" lon="-0.53598">
        <ele>54.2</ele>
        <time>2021-05-12T21:08:58Z</time>
      </trkpt>
      <trkpt lat="47.39266" lon="-0.53529">
        <ele>54</ele>
        <time>2021-05-12T21:09:09Z</time>
      </trkpt>
      <trkpt lat="47.39242" lon="-0.53472">
        <ele>56.4</ele>
        <time>2021-05-12T21:09:18Z</time>
      </trkpt>
      <trkpt lat="47.39208" lon="-0.53387">
        <ele>58</ele>
        <time>2021-05-12T21:09:31Z</time>
      </trkpt>
      <trkpt lat="47.39167" lon="-0.5328">
        <ele>58.4</ele>
        <time>2021-05-12T21:09:48Z</time>
      </trkpt>
      <trkpt lat="47.39135" lon="-0.5321">
        <ele>58</ele>
        <time>2021-05-12T21:10:00Z</time>
      </trkpt>
      <trkpt lat="47.391" lon="-0.53136">
        <ele>56.4</ele>
        <time>2021-05-12T21:10:12Z</time>
      </trkpt>
      <trkpt lat="47.39066" lon="-0.53069">
        <ele>54.6</ele>
        <time>2021-05-12T21:10:23Z</time>
      </trkpt>
      <trkpt lat="47.39033" lon="-0.53001">
        <ele>54.8</ele>
        <time>2021-05-12T21:10:35Z</time>
      </trkpt>
      <trkpt lat="47.39014" lon="-0.52967">
        <ele>55.6</ele>
        <time>2021-05-12T21:10:41Z</time>
      </trkpt>
      <trkpt lat="47.3898" lon="-0.52869">
        <ele>54.8</ele>
        <time>2021-05-12T21:10:56Z</time>
      </trkpt>
      <trkpt lat="47.38949" lon="-0.52809">
        <ele>51.4</ele>
        <time>2021-05-12T21:11:06Z</time>
      </trkpt>
      <trkpt lat="47.38943" lon="-0.52794">
        <ele>51.6</ele>
        <time>2021-05-12T21:11:08Z</time>
      </trkpt>
      <trkpt lat="47.38921" lon="-0.52729">
        <ele>52.8</ele>
        <time>2021-05-12T21:11:18Z</time>
      </trkpt>
      <trkpt lat="47.38879" lon="-0.5267">
        <ele>52.2</ele>
        <time>2021-05-12T21:11:30Z</time>
      </trkpt>
      <trkpt lat="47.38843" lon="-0.52616">
        <ele>54.4</ele>
        <time>2021-05-12T21:11:40Z</time>
      </trkpt>
      <trkpt lat="47.3882" lon="-0.5256">
        <ele>58.4</ele>
        <time>2021-05-12T21:11:49Z</time>
      </trkpt>
      <trkpt lat="47.38805" lon="-0.52514">
        <ele>60.8</ele>
        <time>2021-05-12T21:11:56Z</time>
      </trkpt>
      <trkpt lat="47.38775" lon="-0.52454">
        <ele>61.6</ele>
        <time>2021-05-12T21:12:06Z</time>
      </trkpt>
      <trkpt lat="47.38771" lon="-0.52446">
        <ele>61.8</ele>
        <time>2021-05-12T21:12:07Z</time>
      </trkpt>
      <trkpt lat="47.38737" lon="-0.5237">
        <ele>61.6</ele>
        <time>2021-05-12T21:12:20Z</time>
      </trkpt>
      <trkpt lat="47.38721" lon="-0.5233">
        <ele>61</ele>
        <time>2021-05-12T21:12:26Z</time>
      </trkpt>
      <trkpt lat="47.38698" lon="-0.52255">
        <ele>59.2</ele>
        <time>2021-05-12T21:12:37Z</time>
      </trkpt>
      <trkpt lat="47.38676" lon="-0.52188">
        <ele>59.2</ele>
        <time>2021-05-12T21:12:47Z</time>
      </trkpt>
      <trkpt lat="47.38624" lon="-0.52023">
        <ele>55.2</ele>
        <time>2021-05-12T21:13:12Z</time>
      </trkpt>
      <trkpt lat="47.3857" lon="-0.51858">
        <ele>53.2</ele>
        <time>2021-05-12T21:13:37Z</time>
      </trkpt>
      <trkpt lat="47.38546" lon="-0.51782">
        <ele>54.4</ele>
        <time>2021-05-12T21:13:48Z</time>
      </trkpt>
      <trkpt lat="47.38512" lon="-0.5169">
        <ele>57.2</ele>
        <time>2021-05-12T21:14:03Z</time>
      </trkpt>
      <trkpt lat="47.3848" lon="-0.51622">
        <ele>58.2</ele>
        <time>2021-05-12T21:14:14Z</time>
      </trkpt>
      <trkpt lat="47.38463" lon="-0.5159">
        <ele>58.8</ele>
        <time>2021-05-12T21:14:19Z</time>
      </trkpt>
      <trkpt lat="47.38426" lon="-0.51541">
        <ele>58.6</ele>
        <time>2021-05-12T21:14:29Z</time>
      </trkpt>
      <trkpt lat="47.38359" lon="-0.5149">
        <ele>57</ele>
        <time>2021-05-12T21:14:44Z</time>
      </trkpt>
      <trkpt lat="47.3832" lon="-0.51449">
        <ele>56.2</ele>
        <time>2021-05-12T21:14:54Z</time>
      </trkpt>
      <trkpt lat="47.38289" lon="-0.51422">
        <ele>57.8</ele>
        <time>2021-05-12T21:15:01Z</time>
      </trkpt>
      <trkpt lat="47.38265" lon="-0.51406">
        <ele>57.4</ele>
        <time>2021-05-12T21:15:06Z</time>
      </trkpt>
      <trkpt lat="47.38241" lon="-0.5138">
        <ele>57.8</ele>
        <time>2021-05-12T21:15:12Z</time>
      </trkpt>
      <trkpt lat="47.38218" lon="-0.51349">
        <ele>59</ele>
        <time>2021-05-12T21:15:19Z</time>
      </trkpt>
      <trkpt lat="47.38189" lon="-0.51292">
        <ele>59.8</ele>
        <time>2021-05-12T21:15:28Z</time>
      </trkpt>
      <trkpt lat="47.38175" lon="-0.51259">
        <ele>59.6</ele>
        <time>2021-05-12T21:15:33Z</time>
      </trkpt>
      <trkpt lat="47.38168" lon="-0.5124">
        <ele>59.2</ele>
        <time>2021-05-12T21:15:36Z</time>
      </trkpt>
      <trkpt lat="47.38159" lon="-0.5122">
        <ele>59</ele>
        <time>2021-05-12T21:15:40Z</time>
      </trkpt>
      <trkpt lat="47.38141" lon="-0.51191">
        <ele>58.8</ele>
        <time>2021-05-12T21:15:45Z</time>
      </trkpt>
      <trkpt lat="47.38109" lon="-0.51154">
        <ele>59.2</ele>
        <time>2021-05-12T21:15:53Z</time>
      </trkpt>
      <trkpt lat="47.38105" lon="-0.51154">
        <ele>59.2</ele>
        <time>2021-05-12T21:15:54Z</time>
      </trkpt>
      <trkpt lat="47.38101" lon="-0.51156">
        <ele>59.4</ele>
        <time>2021-05-12T21:15:55Z</time>
      </trkpt>
      <trkpt lat="47.38095" lon="-0.51164">
        <ele>59.6</ele>
        <time>2021-05-12T21:15:56Z</time>
      </trkpt>
      <trkpt lat="47.38091" lon="-0.51193">
        <ele>60.2</ele>
        <time>2021-05-12T21:16:00Z</time>
      </trkpt>
      <trkpt lat="47.38088" lon="-0.51202">
        <ele>60.4</ele>
        <time>2021-05-12T21:16:02Z</time>
      </trkpt>
      <trkpt lat="47.38085" lon="-0.51204">
        <ele>60.4</ele>
        <time>2021-05-12T21:16:03Z</time>
      </trkpt>
      <trkpt lat="47.38033" lon="-0.51205">
        <ele>60.2</ele>
        <time>2021-05-12T21:16:13Z</time>
      </trkpt>
      <trkpt lat="47.37996" lon="-0.51202">
        <ele>59.4</ele>
        <time>2021-05-12T21:16:20Z</time>
      </trkpt>
      <trkpt lat="47.37962" lon="-0.51202">
        <ele>58.4</ele>
        <time>2021-05-12T21:16:27Z</time>
      </trkpt>
      <trkpt lat="47.37932" lon="-0.51206">
        <ele>56.8</ele>
        <time>2021-05-12T21:16:33Z</time>
      </trkpt>
      <trkpt lat="47.37921" lon="-0.5121">
        <ele>55.8</ele>
        <time>2021-05-12T21:16:35Z</time>
      </trkpt>
      <trkpt lat="47.37892" lon="-0.51228">
        <ele>51.6</ele>
        <time>2021-05-12T21:16:42Z</time>
      </trkpt>
      <trkpt lat="47.3787" lon="-0.51244">
        <ele>49</ele>
        <time>2021-05-12T21:16:47Z</time>
      </trkpt>
      <trkpt lat="47.37842" lon="-0.51266">
        <ele>47</ele>
        <time>2021-05-12T21:16:53Z</time>
      </trkpt>
      <trkpt lat="47.37769" lon="-0.51318">
        <ele>47.8</ele>
        <time>2021-05-12T21:17:09Z</time>
      </trkpt>
      <trkpt lat="47.37641" lon="-0.5142">
        <ele>45.8</ele>
        <time>2021-05-12T21:17:38Z</time>
      </trkpt>
      <trkpt lat="47.376" lon="-0.51445">
        <ele>39.8</ele>
        <time>2021-05-12T21:17:47Z</time>
      </trkpt>
      <trkpt lat="47.37591" lon="-0.51452">
        <ele>38.4</ele>
        <time>2021-05-12T21:17:49Z</time>
      </trkpt>
      <trkpt lat="47.37535" lon="-0.51482">
        <ele>29.6</ele>
        <time>2021-05-12T21:18:01Z</time>
      </trkpt>
      <trkpt lat="47.37522" lon="-0.51492">
        <ele>27.4</ele>
        <time>2021-05-12T21:18:04Z</time>
      </trkpt>
      <trkpt lat="47.37514" lon="-0.51496">
        <ele>26.2</ele>
        <time>2021-05-12T21:18:06Z</time>
      </trkpt>
      <trkpt lat="47.37504" lon="-0.51497">
        <ele>25.6</ele>
        <time>2021-05-12T21:18:08Z</time>
      </trkpt>
      <trkpt lat="47.37498" lon="-0.51493">
        <ele>25.2</ele>
        <time>2021-05-12T21:18:09Z</time>
      </trkpt>
      <trkpt lat="47.37494" lon="-0.51483">
        <ele>25</ele>
        <time>2021-05-12T21:18:11Z</time>
      </trkpt>
      <trkpt lat="47.37481" lon="-0.51435">
        <ele>24.8</ele>
        <time>2021-05-12T21:18:18Z</time>
      </trkpt>
      <trkpt lat="47.37458" lon="-0.51349">
        <ele>24</ele>
        <time>2021-05-12T21:18:30Z</time>
      </trkpt>
      <trkpt lat="47.37472" lon="-0.51292">
        <ele>23.8</ele>
        <time>2021-05-12T21:18:39Z</time>
      </trkpt>
      <trkpt lat="47.37492" lon="-0.51265">
        <ele>25</ele>
        <time>2021-05-12T21:18:44Z</time>
      </trkpt>
      <trkpt lat="47.37531" lon="-0.51198">
        <ele>26.4</ele>
        <time>2021-05-12T21:18:56Z</time>
      </trkpt>
      <trkpt lat="47.37582" lon="-0.51144">
        <ele>27.6</ele>
        <time>2021-05-12T21:19:09Z</time>
      </trkpt>
      <trkpt lat="47.37604" lon="-0.51116">
        <ele>26.4</ele>
        <time>2021-05-12T21:19:14Z</time>
      </trkpt>
      <trkpt lat="47.3762" lon="-0.51082">
        <ele>25.6</ele>
        <time>2021-05-12T21:19:20Z</time>
      </trkpt>
      <trkpt lat="47.37636" lon="-0.51032">
        <ele>24.4</ele>
        <time>2021-05-12T21:19:27Z</time>
      </trkpt>
      <trkpt lat="47.37659" lon="-0.50947">
        <ele>25.2</ele>
        <time>2021-05-12T21:19:40Z</time>
      </trkpt>
      <trkpt lat="47.37655" lon="-0.50906">
        <ele>25.4</ele>
        <time>2021-05-12T21:19:46Z</time>
      </trkpt>
      <trkpt lat="47.37658" lon="-0.50837">
        <ele>26.2</ele>
        <time>2021-05-12T21:19:55Z</time>
      </trkpt>
      <trkpt lat="47.37664" lon="-0.508">
        <ele>25.8</ele>
        <time>2021-05-12T21:20:00Z</time>
      </trkpt>
      <trkpt lat="47.37668" lon="-0.50787">
        <ele>25.8</ele>
        <time>2021-05-12T21:20:02Z</time>
      </trkpt>
      <trkpt lat="47.37686" lon="-0.50749">
        <ele>26</ele>
        <time>2021-05-12T21:20:08Z</time>
      </trkpt>
      <trkpt lat="47.37701" lon="-0.50739">
        <ele>26.6</ele>
        <time>2021-05-12T21:20:12Z</time>
      </trkpt>
      <trkpt lat="47.37718" lon="-0.5072">
        <ele>27.2</ele>
        <time>2021-05-12T21:20:16Z</time>
      </trkpt>
      <trkpt lat="47.37725" lon="-0.50704">
        <ele>27.8</ele>
        <time>2021-05-12T21:20:19Z</time>
      </trkpt>
      <trkpt lat="47.37728" lon="-0.50691">
        <ele>28.4</ele>
        <time>2021-05-12T21:20:20Z</time>
      </trkpt>
      <trkpt lat="47.37728" lon="-0.50684">
        <ele>28.6</ele>
        <time>2021-05-12T21:20:21Z</time>
      </trkpt>
      <trkpt lat="47.37726" lon="-0.50673">
        <ele>28.8</ele>
        <time>2021-05-12T21:20:23Z</time>
      </trkpt>
      <trkpt lat="47.37723" lon="-0.50669">
        <ele>28.8</ele>
        <time>2021-05-12T21:20:24Z</time>
      </trkpt>
      <trkpt lat="47.37715" lon="-0.50666">
        <ele>28.8</ele>
        <time>2021-05-12T21:20:25Z</time>
      </trkpt>
      <trkpt lat="47.37656" lon="-0.50666">
        <ele>26.4</ele>
        <time>2021-05-12T21:20:37Z</time>
      </trkpt>
      <trkpt lat="47.37595" lon="-0.50677">
        <ele>24.4</ele>
        <time>2021-05-12T21:20:50Z</time>
      </trkpt>
      <trkpt lat="47.37578" lon="-0.50687">
        <ele>24</ele>
        <time>2021-05-12T21:20:53Z</time>
      </trkpt>
      <trkpt lat="47.37535" lon="-0.50721">
        <ele>24</ele>
        <time>2021-05-12T21:21:03Z</time>
      </trkpt>
      <trkpt lat="47.37495" lon="-0.50746">
        <ele>24.4</ele>
        <time>2021-05-12T21:21:12Z</time>
      </trkpt>
      <trkpt lat="47.37431" lon="-0.50763">
        <ele>26.8</ele>
        <time>2021-05-12T21:21:25Z</time>
      </trkpt>
      <trkpt lat="47.37387" lon="-0.50787">
        <ele>28</ele>
        <time>2021-05-12T21:21:34Z</time>
      </trkpt>
      <trkpt lat="47.37368" lon="-0.50801">
        <ele>29.4</ele>
        <time>2021-05-12T21:21:38Z</time>
      </trkpt>
      <trkpt lat="47.37346" lon="-0.50819">
        <ele>30.8</ele>
        <time>2021-05-12T21:21:43Z</time>
      </trkpt>
      <trkpt lat="47.37335" lon="-0.50832">
        <ele>31.6</ele>
        <time>2021-05-12T21:21:46Z</time>
      </trkpt>
      <trkpt lat="47.37314" lon="-0.50885">
        <ele>34</ele>
        <time>2021-05-12T21:21:55Z</time>
      </trkpt>
      <trkpt lat="47.37307" lon="-0.50912">
        <ele>35.2</ele>
        <time>2021-05-12T21:21:58Z</time>
      </trkpt>
      <trkpt lat="47.37298" lon="-0.50923">
        <ele>35.2</ele>
        <time>2021-05-12T21:22:01Z</time>
      </trkpt>
      <trkpt lat="47.3727" lon="-0.50927">
        <ele>33.8</ele>
        <time>2021-05-12T21:22:06Z</time>
      </trkpt>
      <trkpt lat="47.37261" lon="-0.5093">
        <ele>33.4</ele>
        <time>2021-05-12T21:22:08Z</time>
      </trkpt>
      <trkpt lat="47.37223" lon="-0.50938">
        <ele>32.6</ele>
        <time>2021-05-12T21:22:16Z</time>
      </trkpt>
      <trkpt lat="47.37165" lon="-0.50927">
        <ele>31.8</ele>
        <time>2021-05-12T21:22:28Z</time>
      </trkpt>
      <trkpt lat="47.37159" lon="-0.50927">
        <ele>31.8</ele>
        <time>2021-05-12T21:22:29Z</time>
      </trkpt>
      <trkpt lat="47.37094" lon="-0.50942">
        <ele>32.4</ele>
        <time>2021-05-12T21:22:42Z</time>
      </trkpt>
      <trkpt lat="47.37059" lon="-0.5093">
        <ele>31.8</ele>
        <time>2021-05-12T21:22:49Z</time>
      </trkpt>
      <trkpt lat="47.37016" lon="-0.50921">
        <ele>31.6</ele>
        <time>2021-05-12T21:22:58Z</time>
      </trkpt>
      <trkpt lat="47.37006" lon="-0.50923">
        <ele>31.6</ele>
        <time>2021-05-12T21:23:00Z</time>
      </trkpt>
      <trkpt lat="47.36981" lon="-0.50935">
        <ele>31.8</ele>
        <time>2021-05-12T21:23:05Z</time>
      </trkpt>
      <trkpt lat="47.36965" lon="-0.50948">
        <ele>31.2</ele>
        <time>2021-05-12T21:23:09Z</time>
      </trkpt>
      <trkpt lat="47.36961" lon="-0.50953">
        <ele>31.2</ele>
        <time>2021-05-12T21:23:10Z</time>
      </trkpt>
      <trkpt lat="47.36922" lon="-0.51024">
        <ele>33.4</ele>
        <time>2021-05-12T21:23:22Z</time>
      </trkpt>
      <trkpt lat="47.36917" lon="-0.5102">
        <ele>33</ele>
        <time>2021-05-12T21:23:24Z</time>
      </trkpt>
      <trkpt lat="47.36915" lon="-0.51008">
        <ele>32.6</ele>
        <time>2021-05-12T21:23:25Z</time>
      </trkpt>
      <trkpt lat="47.3691" lon="-0.50991">
        <ele>32.2</ele>
        <time>2021-05-12T21:23:28Z</time>
      </trkpt>
      <trkpt lat="47.36909" lon="-0.5093">
        <ele>31.6</ele>
        <time>2021-05-12T21:23:36Z</time>
      </trkpt>
      <trkpt lat="47.36911" lon="-0.50877">
        <ele>31.6</ele>
        <time>2021-05-12T21:23:43Z</time>
      </trkpt>
      <trkpt lat="47.36915" lon="-0.50825">
        <ele>31.4</ele>
        <time>2021-05-12T21:23:50Z</time>
      </trkpt>
      <trkpt lat="47.36935" lon="-0.50756">
        <ele>31.6</ele>
        <time>2021-05-12T21:24:01Z</time>
      </trkpt>
      <trkpt lat="47.36938" lon="-0.50733">
        <ele>31.8</ele>
        <time>2021-05-12T21:24:04Z</time>
      </trkpt>
      <trkpt lat="47.36939" lon="-0.50637">
        <ele>33</ele>
        <time>2021-05-12T21:24:17Z</time>
      </trkpt>
      <trkpt lat="47.36931" lon="-0.50567">
        <ele>35</ele>
        <time>2021-05-12T21:24:26Z</time>
      </trkpt>
      <trkpt lat="47.36935" lon="-0.50557">
        <ele>35.4</ele>
        <time>2021-05-12T21:24:28Z</time>
      </trkpt>
      <trkpt lat="47.3694" lon="-0.50548">
        <ele>35.4</ele>
        <time>2021-05-12T21:24:30Z</time>
      </trkpt>
      <trkpt lat="47.36942" lon="-0.50541">
        <ele>35.4</ele>
        <time>2021-05-12T21:24:31Z</time>
      </trkpt>
      <trkpt lat="47.3694" lon="-0.50548">
        <ele>35.4</ele>
        <time>2021-05-12T21:24:32Z</time>
      </trkpt>
      <trkpt lat="47.36932" lon="-0.50564">
        <ele>35.2</ele>
        <time>2021-05-12T21:24:34Z</time>
      </trkpt>
      <trkpt lat="47.3693" lon="-0.50564">
        <ele>35.2</ele>
        <time>2021-05-12T21:24:35Z</time>
      </trkpt>
      <trkpt lat="47.36895" lon="-0.50538">
        <ele>36.6</ele>
        <time>2021-05-12T21:24:43Z</time>
      </trkpt>
      <trkpt lat="47.36865" lon="-0.50521">
        <ele>37.8</ele>
        <time>2021-05-12T21:24:49Z</time>
      </trkpt>
      <trkpt lat="47.36804" lon="-0.50504">
        <ele>40.8</ele>
        <time>2021-05-12T21:25:01Z</time>
      </trkpt>
      <trkpt lat="47.36797" lon="-0.50504">
        <ele>41.2</ele>
        <time>2021-05-12T21:25:03Z</time>
      </trkpt>
      <trkpt lat="47.36792" lon="-0.505">
        <ele>41.4</ele>
        <time>2021-05-12T21:25:04Z</time>
      </trkpt>
      <trkpt lat="47.36786" lon="-0.50499">
        <ele>41.8</ele>
        <time>2021-05-12T21:25:05Z</time>
      </trkpt>
      <trkpt lat="47.36761" lon="-0.50484">
        <ele>43.6</ele>
        <time>2021-05-12T21:25:11Z</time>
      </trkpt>
      <trkpt lat="47.36734" lon="-0.50463">
        <ele>46</ele>
        <time>2021-05-12T21:25:17Z</time>
      </trkpt>
      <trkpt lat="47.36729" lon="-0.50456">
        <ele>46.4</ele>
        <time>2021-05-12T21:25:18Z</time>
      </trkpt>
      <trkpt lat="47.36702" lon="-0.50444">
        <ele>47.4</ele>
        <time>2021-05-12T21:25:24Z</time>
      </trkpt>
      <trkpt lat="47.36598" lon="-0.50411">
        <ele>52.6</ele>
        <time>2021-05-12T21:25:45Z</time>
      </trkpt>
      <trkpt lat="47.36554" lon="-0.504">
        <ele>55</ele>
        <time>2021-05-12T21:25:54Z</time>
      </trkpt>
      <trkpt lat="47.36497" lon="-0.50384">
        <ele>55.6</ele>
        <time>2021-05-12T21:26:05Z</time>
      </trkpt>
      <trkpt lat="47.36482" lon="-0.50383">
        <ele>55.8</ele>
        <time>2021-05-12T21:26:08Z</time>
      </trkpt>
      <trkpt lat="47.36481" lon="-0.50384">
        <ele>55.8</ele>
        <time>2021-05-12T21:26:09Z</time>
      </trkpt>
      <trkpt lat="47.36443" lon="-0.50387">
        <ele>56.6</ele>
        <time>2021-05-12T21:26:16Z</time>
      </trkpt>
      <trkpt lat="47.3644" lon="-0.50388">
        <ele>56.6</ele>
        <time>2021-05-12T21:26:17Z</time>
      </trkpt>
      <trkpt lat="47.36423" lon="-0.50381">
        <ele>57</ele>
        <time>2021-05-12T21:26:20Z</time>
      </trkpt>
      <trkpt lat="47.36382" lon="-0.50378">
        <ele>58.6</ele>
        <time>2021-05-12T21:26:29Z</time>
      </trkpt>
      <trkpt lat="47.36335" lon="-0.50348">
        <ele>59.2</ele>
        <time>2021-05-12T21:26:39Z</time>
      </trkpt>
      <trkpt lat="47.36294" lon="-0.50315">
        <ele>59.8</ele>
        <time>2021-05-12T21:26:48Z</time>
      </trkpt>
      <trkpt lat="47.36164" lon="-0.50212">
        <ele>56.6</ele>
        <time>2021-05-12T21:27:18Z</time>
      </trkpt>
      <trkpt lat="47.36153" lon="-0.50202">
        <ele>56.4</ele>
        <time>2021-05-12T21:27:21Z</time>
      </trkpt>
      <trkpt lat="47.36088" lon="-0.50174">
        <ele>59</ele>
        <time>2021-05-12T21:27:34Z</time>
      </trkpt>
      <trkpt lat="47.36013" lon="-0.5014">
        <ele>62.8</ele>
        <time>2021-05-12T21:27:50Z</time>
      </trkpt>
      <trkpt lat="47.35951" lon="-0.5012">
        <ele>65</ele>
        <time>2021-05-12T21:28:02Z</time>
      </trkpt>
      <trkpt lat="47.35926" lon="-0.50106">
        <ele>66</ele>
        <time>2021-05-12T21:28:08Z</time>
      </trkpt>
      <trkpt lat="47.35927" lon="-0.50103">
        <ele>66</ele>
        <time>2021-05-12T21:28:09Z</time>
      </trkpt>
      <trkpt lat="47.35939" lon="-0.50088">
        <ele>65.6</ele>
        <time>2021-05-12T21:28:12Z</time>
      </trkpt>
      <trkpt lat="47.35972" lon="-0.50057">
        <ele>64.2</ele>
        <time>2021-05-12T21:28:19Z</time>
      </trkpt>
      <trkpt lat="47.35975" lon="-0.50052">
        <ele>64</ele>
        <time>2021-05-12T21:28:21Z</time>
      </trkpt>
      <trkpt lat="47.35979" lon="-0.5004">
        <ele>64</ele>
        <time>2021-05-12T21:28:22Z</time>
      </trkpt>
      <trkpt lat="47.35978" lon="-0.50036">
        <ele>64</ele>
        <time>2021-05-12T21:28:23Z</time>
      </trkpt>
      <trkpt lat="47.35972" lon="-0.50027">
        <ele>64.4</ele>
        <time>2021-05-12T21:28:25Z</time>
      </trkpt>
      <trkpt lat="47.3596" lon="-0.50001">
        <ele>65.2</ele>
        <time>2021-05-12T21:28:29Z</time>
      </trkpt>
      <trkpt lat="47.35916" lon="-0.49919">
        <ele>66.6</ele>
        <time>2021-05-12T21:28:43Z</time>
      </trkpt>
      <trkpt lat="47.35909" lon="-0.49889">
        <ele>66.2</ele>
        <time>2021-05-12T21:28:47Z</time>
      </trkpt>
      <trkpt lat="47.35904" lon="-0.49879">
        <ele>66</ele>
        <time>2021-05-12T21:28:49Z</time>
      </trkpt>
      <trkpt lat="47.3586" lon="-0.49829">
        <ele>64.8</ele>
        <time>2021-05-12T21:29:00Z</time>
      </trkpt>
      <trkpt lat="47.35856" lon="-0.49827">
        <ele>64.8</ele>
        <time>2021-05-12T21:29:01Z</time>
      </trkpt>
      <trkpt lat="47.35852" lon="-0.49827">
        <ele>64.8</ele>
        <time>2021-05-12T21:29:02Z</time>
      </trkpt>
      <trkpt lat="47.35849" lon="-0.4983">
        <ele>64.8</ele>
        <time>2021-05-12T21:29:03Z</time>
      </trkpt>
      <trkpt lat="47.3584" lon="-0.49841">
        <ele>65.2</ele>
        <time>2021-05-12T21:29:05Z</time>
      </trkpt>
      <trkpt lat="47.35802" lon="-0.4988">
        <ele>66.6</ele>
        <time>2021-05-12T21:29:14Z</time>
      </trkpt>
      <trkpt lat="47.35769" lon="-0.49896">
        <ele>67</ele>
        <time>2021-05-12T21:29:21Z</time>
      </trkpt>
      <trkpt lat="47.35761" lon="-0.49898">
        <ele>67</ele>
        <time>2021-05-12T21:29:23Z</time>
      </trkpt>
      <trkpt lat="47.35757" lon="-0.49897">
        <ele>67</ele>
        <time>2021-05-12T21:29:24Z</time>
      </trkpt>
      <trkpt lat="47.35749" lon="-0.49893">
        <ele>66.8</ele>
        <time>2021-05-12T21:29:25Z</time>
      </trkpt>
      <trkpt lat="47.35707" lon="-0.49859">
        <ele>64.8</ele>
        <time>2021-05-12T21:29:35Z</time>
      </trkpt>
      <trkpt lat="47.35687" lon="-0.49837">
        <ele>63.4</ele>
        <time>2021-05-12T21:29:40Z</time>
      </trkpt>
      <trkpt lat="47.35662" lon="-0.49797">
        <ele>61</ele>
        <time>2021-05-12T21:29:47Z</time>
      </trkpt>
      <trkpt lat="47.35644" lon="-0.49773">
        <ele>59.4</ele>
        <time>2021-05-12T21:29:52Z</time>
      </trkpt>
      <trkpt lat="47.35623" lon="-0.49752">
        <ele>57.8</ele>
        <time>2021-05-12T21:29:57Z</time>
      </trkpt>
      <trkpt lat="47.35599" lon="-0.49723">
        <ele>54.6</ele>
        <time>2021-05-12T21:30:03Z</time>
      </trkpt>
      <trkpt lat="47.35573" lon="-0.49676">
        <ele>50.2</ele>
        <time>2021-05-12T21:30:12Z</time>
      </trkpt>
      <trkpt lat="47.35558" lon="-0.4964">
        <ele>48.2</ele>
        <time>2021-05-12T21:30:17Z</time>
      </trkpt>
      <trkpt lat="47.35553" lon="-0.49632">
        <ele>47.6</ele>
        <time>2021-05-12T21:30:19Z</time>
      </trkpt>
      <trkpt lat="47.35532" lon="-0.49602">
        <ele>45.2</ele>
        <time>2021-05-12T21:30:25Z</time>
      </trkpt>
      <trkpt lat="47.35506" lon="-0.49571">
        <ele>42</ele>
        <time>2021-05-12T21:30:31Z</time>
      </trkpt>
      <trkpt lat="47.35474" lon="-0.4954">
        <ele>39.8</ele>
        <time>2021-05-12T21:30:39Z</time>
      </trkpt>
      <trkpt lat="47.35466" lon="-0.49529">
        <ele>39.8</ele>
        <time>2021-05-12T21:30:41Z</time>
      </trkpt>
      <trkpt lat="47.35466" lon="-0.49521">
        <ele>39.6</ele>
        <time>2021-05-12T21:30:42Z</time>
      </trkpt>
      <trkpt lat="47.3546" lon="-0.49514">
        <ele>39.6</ele>
        <time>2021-05-12T21:30:44Z</time>
      </trkpt>
      <trkpt lat="47.35453" lon="-0.49512">
        <ele>40</ele>
        <time>2021-05-12T21:30:45Z</time>
      </trkpt>
      <trkpt lat="47.35441" lon="-0.495">
        <ele>41.4</ele>
        <time>2021-05-12T21:30:48Z</time>
      </trkpt>
      <trkpt lat="47.35422" lon="-0.49471">
        <ele>43.8</ele>
        <time>2021-05-12T21:30:54Z</time>
      </trkpt>
      <trkpt lat="47.3538" lon="-0.49426">
        <ele>46</ele>
        <time>2021-05-12T21:31:04Z</time>
      </trkpt>
      <trkpt lat="47.3536" lon="-0.49413">
        <ele>47.4</ele>
        <time>2021-05-12T21:31:08Z</time>
      </trkpt>
      <trkpt lat="47.35321" lon="-0.49409">
        <ele>49.8</ele>
        <time>2021-05-12T21:31:16Z</time>
      </trkpt>
      <trkpt lat="47.35279" lon="-0.49412">
        <ele>54.6</ele>
        <time>2021-05-12T21:31:25Z</time>
      </trkpt>
      <trkpt lat="47.35252" lon="-0.49416">
        <ele>56.2</ele>
        <time>2021-05-12T21:31:30Z</time>
      </trkpt>
      <trkpt lat="47.35198" lon="-0.49418">
        <ele>56.6</ele>
        <time>2021-05-12T21:31:41Z</time>
      </trkpt>
      <trkpt lat="47.35192" lon="-0.49406">
        <ele>56.8</ele>
        <time>2021-05-12T21:31:43Z</time>
      </trkpt>
      <trkpt lat="47.35126" lon="-0.49306">
        <ele>58</ele>
        <time>2021-05-12T21:32:02Z</time>
      </trkpt>
      <trkpt lat="47.35089" lon="-0.4924">
        <ele>61</ele>
        <time>2021-05-12T21:32:14Z</time>
      </trkpt>
      <trkpt lat="47.35073" lon="-0.49219">
        <ele>62</ele>
        <time>2021-05-12T21:32:18Z</time>
      </trkpt>
      <trkpt lat="47.3497" lon="-0.49095">
        <ele>67.8</ele>
        <time>2021-05-12T21:32:45Z</time>
      </trkpt>
      <trkpt lat="47.34937" lon="-0.49016">
        <ele>70.2</ele>
        <time>2021-05-12T21:32:57Z</time>
      </trkpt>
      <trkpt lat="47.34919" lon="-0.48968">
        <ele>71.2</ele>
        <time>2021-05-12T21:33:05Z</time>
      </trkpt>
      <trkpt lat="47.34901" lon="-0.48885">
        <ele>72</ele>
        <time>2021-05-12T21:33:17Z</time>
      </trkpt>
      <trkpt lat="47.34894" lon="-0.48846">
        <ele>72</ele>
        <time>2021-05-12T21:33:22Z</time>
      </trkpt>
      <trkpt lat="47.34896" lon="-0.48778">
        <ele>71.6</ele>
        <time>2021-05-12T21:33:31Z</time>
      </trkpt>
      <trkpt lat="47.3491" lon="-0.48729">
        <ele>71</ele>
        <time>2021-05-12T21:33:38Z</time>
      </trkpt>
      <trkpt lat="47.3491" lon="-0.48723">
        <ele>71</ele>
        <time>2021-05-12T21:33:39Z</time>
      </trkpt>
      <trkpt lat="47.34933" lon="-0.4864">
        <ele>69.4</ele>
        <time>2021-05-12T21:33:51Z</time>
      </trkpt>
      <trkpt lat="47.34939" lon="-0.48605">
        <ele>68.2</ele>
        <time>2021-05-12T21:33:56Z</time>
      </trkpt>
      <trkpt lat="47.34951" lon="-0.48515">
        <ele>65.8</ele>
        <time>2021-05-12T21:34:09Z</time>
      </trkpt>
      <trkpt lat="47.34965" lon="-0.48471">
        <ele>64.8</ele>
        <time>2021-05-12T21:34:16Z</time>
      </trkpt>
      <trkpt lat="47.34978" lon="-0.48444">
        <ele>63.8</ele>
        <time>2021-05-12T21:34:20Z</time>
      </trkpt>
      <trkpt lat="47.34992" lon="-0.48426">
        <ele>62.8</ele>
        <time>2021-05-12T21:34:24Z</time>
      </trkpt>
      <trkpt lat="47.35003" lon="-0.48418">
        <ele>62</ele>
        <time>2021-05-12T21:34:26Z</time>
      </trkpt>
      <trkpt lat="47.35015" lon="-0.48411">
        <ele>61</ele>
        <time>2021-05-12T21:34:29Z</time>
      </trkpt>
      <trkpt lat="47.35046" lon="-0.48398">
        <ele>59.6</ele>
        <time>2021-05-12T21:34:35Z</time>
      </trkpt>
      <trkpt lat="47.35058" lon="-0.48389">
        <ele>59.4</ele>
        <time>2021-05-12T21:34:38Z</time>
      </trkpt>
      <trkpt lat="47.35068" lon="-0.48377">
        <ele>59.2</ele>
        <time>2021-05-12T21:34:40Z</time>
      </trkpt>
      <trkpt lat="47.35094" lon="-0.48341">
        <ele>58.6</ele>
        <time>2021-05-12T21:34:48Z</time>
      </trkpt>
      <trkpt lat="47.35135" lon="-0.48289">
        <ele>57</ele>
        <time>2021-05-12T21:34:58Z</time>
      </trkpt>
      <trkpt lat="47.3515" lon="-0.48273">
        <ele>56.4</ele>
        <time>2021-05-12T21:35:02Z</time>
      </trkpt>
      <trkpt lat="47.35153" lon="-0.48271">
        <ele>56.2</ele>
        <time>2021-05-12T21:35:03Z</time>
      </trkpt>
      <trkpt lat="47.35158" lon="-0.48271">
        <ele>56.2</ele>
        <time>2021-05-12T21:35:04Z</time>
      </trkpt>
      <trkpt lat="47.35163" lon="-0.48272">
        <ele>56</ele>
        <time>2021-05-12T21:35:05Z</time>
      </trkpt>
      <trkpt lat="47.35172" lon="-0.48277">
        <ele>56.2</ele>
        <time>2021-05-12T21:35:07Z</time>
      </trkpt>
      <trkpt lat="47.35239" lon="-0.48303">
        <ele>56.8</ele>
        <time>2021-05-12T21:35:21Z</time>
      </trkpt>
      <trkpt lat="47.35258" lon="-0.48308">
        <ele>56.8</ele>
        <time>2021-05-12T21:35:24Z</time>
      </trkpt>
      <trkpt lat="47.35316" lon="-0.48313">
        <ele>56.2</ele>
        <time>2021-05-12T21:35:36Z</time>
      </trkpt>
      <trkpt lat="47.35376" lon="-0.48316">
        <ele>54.8</ele>
        <time>2021-05-12T21:35:48Z</time>
      </trkpt>
      <trkpt lat="47.35425" lon="-0.48307">
        <ele>53.6</ele>
        <time>2021-05-12T21:35:58Z</time>
      </trkpt>
      <trkpt lat="47.35472" lon="-0.48285">
        <ele>52.2</ele>
        <time>2021-05-12T21:36:08Z</time>
      </trkpt>
      <trkpt lat="47.3553" lon="-0.48244">
        <ele>50.8</ele>
        <time>2021-05-12T21:36:21Z</time>
      </trkpt>
      <trkpt lat="47.35585" lon="-0.482">
        <ele>49.8</ele>
        <time>2021-05-12T21:36:33Z</time>
      </trkpt>
      <trkpt lat="47.3564" lon="-0.48158">
        <ele>48.8</ele>
        <time>2021-05-12T21:36:46Z</time>
      </trkpt>
      <trkpt lat="47.35653" lon="-0.48154">
        <ele>48.8</ele>
        <time>2021-05-12T21:36:48Z</time>
      </trkpt>
      <trkpt lat="47.35714" lon="-0.4815">
        <ele>48</ele>
        <time>2021-05-12T21:37:01Z</time>
      </trkpt>
      <trkpt lat="47.35754" lon="-0.48158">
        <ele>47.8</ele>
        <time>2021-05-12T21:37:09Z</time>
      </trkpt>
      <trkpt lat="47.35766" lon="-0.48159">
        <ele>47.6</ele>
        <time>2021-05-12T21:37:11Z</time>
      </trkpt>
      <trkpt lat="47.35833" lon="-0.48155">
        <ele>47</ele>
        <time>2021-05-12T21:37:24Z</time>
      </trkpt>
      <trkpt lat="47.35892" lon="-0.48148">
        <ele>47</ele>
        <time>2021-05-12T21:37:36Z</time>
      </trkpt>
      <trkpt lat="47.35914" lon="-0.48141">
        <ele>46.4</ele>
        <time>2021-05-12T21:37:41Z</time>
      </trkpt>
      <trkpt lat="47.35921" lon="-0.48145">
        <ele>46.2</ele>
        <time>2021-05-12T21:37:42Z</time>
      </trkpt>
      <trkpt lat="47.35935" lon="-0.48216">
        <ele>46</ele>
        <time>2021-05-12T21:37:52Z</time>
      </trkpt>
      <trkpt lat="47.35953" lon="-0.48284">
        <ele>45.6</ele>
        <time>2021-05-12T21:38:02Z</time>
      </trkpt>
      <trkpt lat="47.35978" lon="-0.48336">
        <ele>44.6</ele>
        <time>2021-05-12T21:38:11Z</time>
      </trkpt>
      <trkpt lat="47.36055" lon="-0.48473">
        <ele>38.6</ele>
        <time>2021-05-12T21:38:35Z</time>
      </trkpt>
      <trkpt lat="47.36059" lon="-0.48478">
        <ele>38.4</ele>
        <time>2021-05-12T21:38:36Z</time>
      </trkpt>
      <trkpt lat="47.36071" lon="-0.48488">
        <ele>37.4</ele>
        <time>2021-05-12T21:38:39Z</time>
      </trkpt>
      <trkpt lat="47.36074" lon="-0.48493">
        <ele>37.2</ele>
        <time>2021-05-12T21:38:40Z</time>
      </trkpt>
      <trkpt lat="47.36088" lon="-0.48532">
        <ele>35.4</ele>
        <time>2021-05-12T21:38:46Z</time>
      </trkpt>
      <trkpt lat="47.36101" lon="-0.48598">
        <ele>34</ele>
        <time>2021-05-12T21:38:55Z</time>
      </trkpt>
      <trkpt lat="47.36105" lon="-0.48604">
        <ele>34</ele>
        <time>2021-05-12T21:38:56Z</time>
      </trkpt>
      <trkpt lat="47.36108" lon="-0.48602">
        <ele>34</ele>
        <time>2021-05-12T21:38:57Z</time>
      </trkpt>
      <trkpt lat="47.36113" lon="-0.48613">
        <ele>34</ele>
        <time>2021-05-12T21:38:59Z</time>
      </trkpt>
      <trkpt lat="47.36118" lon="-0.48616">
        <ele>34</ele>
        <time>2021-05-12T21:39:00Z</time>
      </trkpt>
      <trkpt lat="47.36138" lon="-0.48618">
        <ele>34</ele>
        <time>2021-05-12T21:39:04Z</time>
      </trkpt>
      <trkpt lat="47.36151" lon="-0.4862">
        <ele>34.2</ele>
        <time>2021-05-12T21:39:06Z</time>
      </trkpt>
      <trkpt lat="47.36164" lon="-0.48625">
        <ele>34.6</ele>
        <time>2021-05-12T21:39:09Z</time>
      </trkpt>
      <trkpt lat="47.36176" lon="-0.48633">
        <ele>35</ele>
        <time>2021-05-12T21:39:12Z</time>
      </trkpt>
      <trkpt lat="47.36189" lon="-0.48645">
        <ele>35.6</ele>
        <time>2021-05-12T21:39:15Z</time>
      </trkpt>
      <trkpt lat="47.36229" lon="-0.48688">
        <ele>38.2</ele>
        <time>2021-05-12T21:39:25Z</time>
      </trkpt>
      <trkpt lat="47.36274" lon="-0.48728">
        <ele>40.8</ele>
        <time>2021-05-12T21:39:35Z</time>
      </trkpt>
      <trkpt lat="47.36301" lon="-0.48747">
        <ele>43.2</ele>
        <time>2021-05-12T21:39:41Z</time>
      </trkpt>
      <trkpt lat="47.36384" lon="-0.48814">
        <ele>48</ele>
        <time>2021-05-12T21:40:00Z</time>
      </trkpt>
      <trkpt lat="47.36431" lon="-0.48746">
        <ele>48</ele>
        <time>2021-05-12T21:40:14Z</time>
      </trkpt>
      <trkpt lat="47.36466" lon="-0.48712">
        <ele>47.6</ele>
        <time>2021-05-12T21:40:22Z</time>
      </trkpt>
      <trkpt lat="47.36507" lon="-0.48659">
        <ele>46.8</ele>
        <time>2021-05-12T21:40:33Z</time>
      </trkpt>
      <trkpt lat="47.36559" lon="-0.48619">
        <ele>46</ele>
        <time>2021-05-12T21:40:45Z</time>
      </trkpt>
      <trkpt lat="47.36657" lon="-0.4855">
        <ele>44</ele>
        <time>2021-05-12T21:41:06Z</time>
      </trkpt>
      <trkpt lat="47.36769" lon="-0.48474">
        <ele>42.2</ele>
        <time>2021-05-12T21:41:31Z</time>
      </trkpt>
      <trkpt lat="47.36785" lon="-0.48467">
        <ele>42</ele>
        <time>2021-05-12T21:41:34Z</time>
      </trkpt>
      <trkpt lat="47.36788" lon="-0.48468">
        <ele>41.8</ele>
        <time>2021-05-12T21:41:35Z</time>
      </trkpt>
      <trkpt lat="47.36793" lon="-0.48475">
        <ele>41.8</ele>
        <time>2021-05-12T21:41:36Z</time>
      </trkpt>
      <trkpt lat="47.36797" lon="-0.48495">
        <ele>41.6</ele>
        <time>2021-05-12T21:41:39Z</time>
      </trkpt>
      <trkpt lat="47.36812" lon="-0.4856">
        <ele>41.2</ele>
        <time>2021-05-12T21:41:48Z</time>
      </trkpt>
      <trkpt lat="47.36815" lon="-0.48565">
        <ele>41.2</ele>
        <time>2021-05-12T21:41:49Z</time>
      </trkpt>
      <trkpt lat="47.3682" lon="-0.48568">
        <ele>41</ele>
        <time>2021-05-12T21:41:50Z</time>
      </trkpt>
      <trkpt lat="47.36825" lon="-0.48568">
        <ele>41</ele>
        <time>2021-05-12T21:41:52Z</time>
      </trkpt>
      <trkpt lat="47.36902" lon="-0.48542">
        <ele>40</ele>
        <time>2021-05-12T21:42:07Z</time>
      </trkpt>
      <trkpt lat="47.36964" lon="-0.48522">
        <ele>39</ele>
        <time>2021-05-12T21:42:20Z</time>
      </trkpt>
      <trkpt lat="47.37026" lon="-0.48507">
        <ele>37.6</ele>
        <time>2021-05-12T21:42:33Z</time>
      </trkpt>
      <trkpt lat="47.37095" lon="-0.48491">
        <ele>36</ele>
        <time>2021-05-12T21:42:46Z</time>
      </trkpt>
      <trkpt lat="47.37126" lon="-0.48483">
        <ele>34.6</ele>
        <time>2021-05-12T21:42:53Z</time>
      </trkpt>
      <trkpt lat="47.3714" lon="-0.48474">
        <ele>34</ele>
        <time>2021-05-12T21:42:56Z</time>
      </trkpt>
      <trkpt lat="47.3719" lon="-0.48432">
        <ele>32.2</ele>
        <time>2021-05-12T21:43:07Z</time>
      </trkpt>
      <trkpt lat="47.37196" lon="-0.4843">
        <ele>32</ele>
        <time>2021-05-12T21:43:09Z</time>
      </trkpt>
      <trkpt lat="47.37202" lon="-0.48431">
        <ele>31.8</ele>
        <time>2021-05-12T21:43:10Z</time>
      </trkpt>
      <trkpt lat="47.37208" lon="-0.48434">
        <ele>31.6</ele>
        <time>2021-05-12T21:43:11Z</time>
      </trkpt>
      <trkpt lat="47.37257" lon="-0.48476">
        <ele>30</ele>
        <time>2021-05-12T21:43:23Z</time>
      </trkpt>
      <trkpt lat="47.37283" lon="-0.48499">
        <ele>29.2</ele>
        <time>2021-05-12T21:43:29Z</time>
      </trkpt>
      <trkpt lat="47.37288" lon="-0.48507">
        <ele>29</ele>
        <time>2021-05-12T21:43:30Z</time>
      </trkpt>
      <trkpt lat="47.37292" lon="-0.48516">
        <ele>29</ele>
        <time>2021-05-12T21:43:31Z</time>
      </trkpt>
      <trkpt lat="47.37297" lon="-0.48537">
        <ele>29.2</ele>
        <time>2021-05-12T21:43:34Z</time>
      </trkpt>
      <trkpt lat="47.37298" lon="-0.48547">
        <ele>29.4</ele>
        <time>2021-05-12T21:43:36Z</time>
      </trkpt>
      <trkpt lat="47.37298" lon="-0.48556">
        <ele>29.6</ele>
        <time>2021-05-12T21:43:37Z</time>
      </trkpt>
      <trkpt lat="47.37303" lon="-0.48585">
        <ele>30</ele>
        <time>2021-05-12T21:43:41Z</time>
      </trkpt>
      <trkpt lat="47.37306" lon="-0.48586">
        <ele>30</ele>
        <time>2021-05-12T21:43:42Z</time>
      </trkpt>
      <trkpt lat="47.37319" lon="-0.48579">
        <ele>29.8</ele>
        <time>2021-05-12T21:43:45Z</time>
      </trkpt>
      <trkpt lat="47.37389" lon="-0.48539">
        <ele>29</ele>
        <time>2021-05-12T21:44:00Z</time>
      </trkpt>
      <trkpt lat="47.37425" lon="-0.48527">
        <ele>29</ele>
        <time>2021-05-12T21:44:07Z</time>
      </trkpt>
      <trkpt lat="47.37438" lon="-0.4852">
        <ele>29</ele>
        <time>2021-05-12T21:44:10Z</time>
      </trkpt>
      <trkpt lat="47.37457" lon="-0.48505">
        <ele>29.4</ele>
        <time>2021-05-12T21:44:14Z</time>
      </trkpt>
      <trkpt lat="47.37481" lon="-0.4847">
        <ele>30.4</ele>
        <time>2021-05-12T21:44:21Z</time>
      </trkpt>
      <trkpt lat="47.375" lon="-0.48449">
        <ele>32.2</ele>
        <time>2021-05-12T21:44:26Z</time>
      </trkpt>
      <trkpt lat="47.37524" lon="-0.4842">
        <ele>34.4</ele>
        <time>2021-05-12T21:44:32Z</time>
      </trkpt>
      <trkpt lat="47.37552" lon="-0.48377">
        <ele>36.2</ele>
        <time>2021-05-12T21:44:40Z</time>
      </trkpt>
      <trkpt lat="47.37598" lon="-0.4833">
        <ele>39.4</ele>
        <time>2021-05-12T21:44:51Z</time>
      </trkpt>
      <trkpt lat="47.37638" lon="-0.48302">
        <ele>42</ele>
        <time>2021-05-12T21:45:00Z</time>
      </trkpt>
      <trkpt lat="47.37791" lon="-0.48204">
        <ele>50.8</ele>
        <time>2021-05-12T21:45:33Z</time>
      </trkpt>
      <trkpt lat="47.37809" lon="-0.48194">
        <ele>52</ele>
        <time>2021-05-12T21:45:37Z</time>
      </trkpt>
      <trkpt lat="47.37811" lon="-0.48196">
        <ele>52</ele>
        <time>2021-05-12T21:45:38Z</time>
      </trkpt>
      <trkpt lat="47.37815" lon="-0.48203">
        <ele>52</ele>
        <time>2021-05-12T21:45:39Z</time>
      </trkpt>
      <trkpt lat="47.37817" lon="-0.4821">
        <ele>52</ele>
        <time>2021-05-12T21:45:40Z</time>
      </trkpt>
      <trkpt lat="47.37821" lon="-0.48217">
        <ele>52</ele>
        <time>2021-05-12T21:45:41Z</time>
      </trkpt>
      <trkpt lat="47.37825" lon="-0.48228">
        <ele>52</ele>
        <time>2021-05-12T21:45:43Z</time>
      </trkpt>
      <trkpt lat="47.3785" lon="-0.4832">
        <ele>51.8</ele>
        <time>2021-05-12T21:45:56Z</time>
      </trkpt>
      <trkpt lat="47.37867" lon="-0.48393">
        <ele>51.4</ele>
        <time>2021-05-12T21:46:07Z</time>
      </trkpt>
      <trkpt lat="47.37886" lon="-0.48512">
        <ele>48.6</ele>
        <time>2021-05-12T21:46:24Z</time>
      </trkpt>
      <trkpt lat="47.37891" lon="-0.48577">
        <ele>47</ele>
        <time>2021-05-12T21:46:32Z</time>
      </trkpt>
      <trkpt lat="47.37893" lon="-0.48583">
        <ele>46.8</ele>
        <time>2021-05-12T21:46:33Z</time>
      </trkpt>
      <trkpt lat="47.37895" lon="-0.48589">
        <ele>46.6</ele>
        <time>2021-05-12T21:46:34Z</time>
      </trkpt>
      <trkpt lat="47.37899" lon="-0.48592">
        <ele>46.6</ele>
        <time>2021-05-12T21:46:35Z</time>
      </trkpt>
      <trkpt lat="47.37903" lon="-0.48595">
        <ele>46.6</ele>
        <time>2021-05-12T21:46:36Z</time>
      </trkpt>
      <trkpt lat="47.37908" lon="-0.48595">
        <ele>46.8</ele>
        <time>2021-05-12T21:46:37Z</time>
      </trkpt>
      <trkpt lat="47.37918" lon="-0.48593">
        <ele>47</ele>
        <time>2021-05-12T21:46:39Z</time>
      </trkpt>
      <trkpt lat="47.37941" lon="-0.48599">
        <ele>47.4</ele>
        <time>2021-05-12T21:46:44Z</time>
      </trkpt>
      <trkpt lat="47.37959" lon="-0.48607">
        <ele>47.4</ele>
        <time>2021-05-12T21:46:48Z</time>
      </trkpt>
      <trkpt lat="47.37989" lon="-0.48633">
        <ele>46.8</ele>
        <time>2021-05-12T21:46:54Z</time>
      </trkpt>
      <trkpt lat="47.37998" lon="-0.48639">
        <ele>46.8</ele>
        <time>2021-05-12T21:46:56Z</time>
      </trkpt>
      <trkpt lat="47.38007" lon="-0.48644">
        <ele>47.2</ele>
        <time>2021-05-12T21:46:58Z</time>
      </trkpt>
      <trkpt lat="47.38011" lon="-0.48648">
        <ele>47.2</ele>
        <time>2021-05-12T21:46:59Z</time>
      </trkpt>
      <trkpt lat="47.38014" lon="-0.48653">
        <ele>47.2</ele>
        <time>2021-05-12T21:47:00Z</time>
      </trkpt>
      <trkpt lat="47.38013" lon="-0.48677">
        <ele>47</ele>
        <time>2021-05-12T21:47:04Z</time>
      </trkpt>
      <trkpt lat="47.38015" lon="-0.48685">
        <ele>47</ele>
        <time>2021-05-12T21:47:05Z</time>
      </trkpt>
      <trkpt lat="47.38022" lon="-0.48693">
        <ele>47.4</ele>
        <time>2021-05-12T21:47:06Z</time>
      </trkpt>
      <trkpt lat="47.38026" lon="-0.48691">
        <ele>47.6</ele>
        <time>2021-05-12T21:47:07Z</time>
      </trkpt>
      <trkpt lat="47.3804" lon="-0.48679">
        <ele>48</ele>
        <time>2021-05-12T21:47:11Z</time>
      </trkpt>
      <trkpt lat="47.38086" lon="-0.48645">
        <ele>49.2</ele>
        <time>2021-05-12T21:47:21Z</time>
      </trkpt>
      <trkpt lat="47.38104" lon="-0.48633">
        <ele>50</ele>
        <time>2021-05-12T21:47:25Z</time>
      </trkpt>
      <trkpt lat="47.38161" lon="-0.48609">
        <ele>52</ele>
        <time>2021-05-12T21:47:37Z</time>
      </trkpt>
      <trkpt lat="47.38179" lon="-0.48609">
        <ele>52.6</ele>
        <time>2021-05-12T21:47:40Z</time>
      </trkpt>
      <trkpt lat="47.38208" lon="-0.48618">
        <ele>53.6</ele>
        <time>2021-05-12T21:47:46Z</time>
      </trkpt>
      <trkpt lat="47.38242" lon="-0.48636">
        <ele>54</ele>
        <time>2021-05-12T21:47:54Z</time>
      </trkpt>
      <trkpt lat="47.38255" lon="-0.48638">
        <ele>54</ele>
        <time>2021-05-12T21:47:56Z</time>
      </trkpt>
      <trkpt lat="47.38311" lon="-0.48626">
        <ele>54.8</ele>
        <time>2021-05-12T21:48:08Z</time>
      </trkpt>
      <trkpt lat="47.3832" lon="-0.4862">
        <ele>54.8</ele>
        <time>2021-05-12T21:48:09Z</time>
      </trkpt>
      <trkpt lat="47.38331" lon="-0.48607">
        <ele>54.8</ele>
        <time>2021-05-12T21:48:12Z</time>
      </trkpt>
      <trkpt lat="47.38375" lon="-0.4853">
        <ele>55</ele>
        <time>2021-05-12T21:48:26Z</time>
      </trkpt>
      <trkpt lat="47.384" lon="-0.48494">
        <ele>54.8</ele>
        <time>2021-05-12T21:48:33Z</time>
      </trkpt>
      <trkpt lat="47.3841" lon="-0.48485">
        <ele>54.6</ele>
        <time>2021-05-12T21:48:35Z</time>
      </trkpt>
      <trkpt lat="47.38422" lon="-0.48481">
        <ele>54.6</ele>
        <time>2021-05-12T21:48:38Z</time>
      </trkpt>
      <trkpt lat="47.38434" lon="-0.48481">
        <ele>54.6</ele>
        <time>2021-05-12T21:48:40Z</time>
      </trkpt>
      <trkpt lat="47.38464" lon="-0.48486">
        <ele>54.4</ele>
        <time>2021-05-12T21:48:46Z</time>
      </trkpt>
      <trkpt lat="47.38475" lon="-0.48482">
        <ele>54.2</ele>
        <time>2021-05-12T21:48:48Z</time>
      </trkpt>
      <trkpt lat="47.38484" lon="-0.48477">
        <ele>54</ele>
        <time>2021-05-12T21:48:50Z</time>
      </trkpt>
      <trkpt lat="47.38494" lon="-0.48456">
        <ele>54</ele>
        <time>2021-05-12T21:48:54Z</time>
      </trkpt>
      <trkpt lat="47.38497" lon="-0.48448">
        <ele>53.8</ele>
        <time>2021-05-12T21:48:55Z</time>
      </trkpt>
      <trkpt lat="47.385" lon="-0.48445">
        <ele>53.8</ele>
        <time>2021-05-12T21:48:56Z</time>
      </trkpt>
      <trkpt lat="47.38505" lon="-0.48444">
        <ele>53.6</ele>
        <time>2021-05-12T21:48:57Z</time>
      </trkpt>
      <trkpt lat="47.3851" lon="-0.48445">
        <ele>53.6</ele>
        <time>2021-05-12T21:48:58Z</time>
      </trkpt>
      <trkpt lat="47.38521" lon="-0.4845">
        <ele>53.4</ele>
        <time>2021-05-12T21:49:00Z</time>
      </trkpt>
      <trkpt lat="47.38538" lon="-0.48462">
        <ele>53.2</ele>
        <time>2021-05-12T21:49:04Z</time>
      </trkpt>
      <trkpt lat="47.38548" lon="-0.48474">
        <ele>53.4</ele>
        <time>2021-05-12T21:49:07Z</time>
      </trkpt>
      <trkpt lat="47.3856" lon="-0.48495">
        <ele>53.6</ele>
        <time>2021-05-12T21:49:10Z</time>
      </trkpt>
      <trkpt lat="47.38573" lon="-0.48515">
        <ele>54</ele>
        <time>2021-05-12T21:49:14Z</time>
      </trkpt>
      <trkpt lat="47.38579" lon="-0.48519">
        <ele>54</ele>
        <time>2021-05-12T21:49:15Z</time>
      </trkpt>
      <trkpt lat="47.38584" lon="-0.48522">
        <ele>54</ele>
        <time>2021-05-12T21:49:17Z</time>
      </trkpt>
      <trkpt lat="47.3859" lon="-0.48523">
        <ele>53.8</ele>
        <time>2021-05-12T21:49:18Z</time>
      </trkpt>
      <trkpt lat="47.38597" lon="-0.48522">
        <ele>53.6</ele>
        <time>2021-05-12T21:49:19Z</time>
      </trkpt>
      <trkpt lat="47.38609" lon="-0.48516">
        <ele>53.2</ele>
        <time>2021-05-12T21:49:22Z</time>
      </trkpt>
      <trkpt lat="47.38642" lon="-0.48488">
        <ele>52.4</ele>
        <time>2021-05-12T21:49:29Z</time>
      </trkpt>
      <trkpt lat="47.38657" lon="-0.48478">
        <ele>52</ele>
        <time>2021-05-12T21:49:33Z</time>
      </trkpt>
      <trkpt lat="47.38662" lon="-0.48479">
        <ele>52</ele>
        <time>2021-05-12T21:49:34Z</time>
      </trkpt>
      <trkpt lat="47.38669" lon="-0.48487">
        <ele>52</ele>
        <time>2021-05-12T21:49:35Z</time>
      </trkpt>
      <trkpt lat="47.38679" lon="-0.48515">
        <ele>52</ele>
        <time>2021-05-12T21:49:40Z</time>
      </trkpt>
      <trkpt lat="47.38694" lon="-0.48574">
        <ele>52.8</ele>
        <time>2021-05-12T21:49:48Z</time>
      </trkpt>
      <trkpt lat="47.38707" lon="-0.48616">
        <ele>53</ele>
        <time>2021-05-12T21:49:55Z</time>
      </trkpt>
      <trkpt lat="47.38731" lon="-0.48698">
        <ele>53.2</ele>
        <time>2021-05-12T21:50:07Z</time>
      </trkpt>
      <trkpt lat="47.38749" lon="-0.48763">
        <ele>53.2</ele>
        <time>2021-05-12T21:50:16Z</time>
      </trkpt>
      <trkpt lat="47.3877" lon="-0.48836">
        <ele>52.8</ele>
        <time>2021-05-12T21:50:27Z</time>
      </trkpt>
      <trkpt lat="47.3879" lon="-0.48917">
        <ele>53</ele>
        <time>2021-05-12T21:50:39Z</time>
      </trkpt>
      <trkpt lat="47.38818" lon="-0.49037">
        <ele>53.4</ele>
        <time>2021-05-12T21:50:56Z</time>
      </trkpt>
      <trkpt lat="47.3882" lon="-0.49044">
        <ele>53.4</ele>
        <time>2021-05-12T21:50:57Z</time>
      </trkpt>
      <trkpt lat="47.38824" lon="-0.49048">
        <ele>53.2</ele>
        <time>2021-05-12T21:50:58Z</time>
      </trkpt>
      <trkpt lat="47.38833" lon="-0.49051">
        <ele>53</ele>
        <time>2021-05-12T21:51:00Z</time>
      </trkpt>
      <trkpt lat="47.38837" lon="-0.49054">
        <ele>53</ele>
        <time>2021-05-12T21:51:01Z</time>
      </trkpt>
      <trkpt lat="47.3884" lon="-0.49059">
        <ele>53</ele>
        <time>2021-05-12T21:51:02Z</time>
      </trkpt>
      <trkpt lat="47.38843" lon="-0.49072">
        <ele>52.8</ele>
        <time>2021-05-12T21:51:03Z</time>
      </trkpt>
      <trkpt lat="47.38858" lon="-0.49173">
        <ele>50.8</ele>
        <time>2021-05-12T21:51:17Z</time>
      </trkpt>
      <trkpt lat="47.38868" lon="-0.49229">
        <ele>49.8</ele>
        <time>2021-05-12T21:51:25Z</time>
      </trkpt>
      <trkpt lat="47.3888" lon="-0.49309">
        <ele>48.2</ele>
        <time>2021-05-12T21:51:37Z</time>
      </trkpt>
      <trkpt lat="47.38883" lon="-0.49332">
        <ele>47.8</ele>
        <time>2021-05-12T21:51:40Z</time>
      </trkpt>
      <trkpt lat="47.38885" lon="-0.49344">
        <ele>47.8</ele>
        <time>2021-05-12T21:51:41Z</time>
      </trkpt>
      <trkpt lat="47.38887" lon="-0.49347">
        <ele>47.8</ele>
        <time>2021-05-12T21:51:42Z</time>
      </trkpt>
      <trkpt lat="47.38895" lon="-0.49347">
        <ele>47.6</ele>
        <time>2021-05-12T21:51:43Z</time>
      </trkpt>
      <trkpt lat="47.38929" lon="-0.49335">
        <ele>46.8</ele>
        <time>2021-05-12T21:51:51Z</time>
      </trkpt>
      <trkpt lat="47.38971" lon="-0.49325">
        <ele>46</ele>
        <time>2021-05-12T21:51:59Z</time>
      </trkpt>
      <trkpt lat="47.39016" lon="-0.49328">
        <ele>44.8</ele>
        <time>2021-05-12T21:52:08Z</time>
      </trkpt>
      <trkpt lat="47.3904" lon="-0.49332">
        <ele>44.4</ele>
        <time>2021-05-12T21:52:13Z</time>
      </trkpt>
      <trkpt lat="47.39045" lon="-0.49335">
        <ele>44.2</ele>
        <time>2021-05-12T21:52:14Z</time>
      </trkpt>
      <trkpt lat="47.39051" lon="-0.49343">
        <ele>44</ele>
        <time>2021-05-12T21:52:16Z</time>
      </trkpt>
      <trkpt lat="47.39053" lon="-0.49353">
        <ele>44</ele>
        <time>2021-05-12T21:52:17Z</time>
      </trkpt>
      <trkpt lat="47.39059" lon="-0.49426">
        <ele>43.8</ele>
        <time>2021-05-12T21:52:27Z</time>
      </trkpt>
      <trkpt lat="47.39065" lon="-0.49543">
        <ele>43.6</ele>
        <time>2021-05-12T21:52:43Z</time>
      </trkpt>
      <trkpt lat="47.39066" lon="-0.49549">
        <ele>43.4</ele>
        <time>2021-05-12T21:52:44Z</time>
      </trkpt>
      <trkpt lat="47.39072" lon="-0.49556">
        <ele>43.2</ele>
        <time>2021-05-12T21:52:45Z</time>
      </trkpt>
      <trkpt lat="47.39087" lon="-0.49553">
        <ele>43</ele>
        <time>2021-05-12T21:52:48Z</time>
      </trkpt>
      <trkpt lat="47.39121" lon="-0.49549">
        <ele>42.4</ele>
        <time>2021-05-12T21:52:55Z</time>
      </trkpt>
      <trkpt lat="47.39126" lon="-0.49552">
        <ele>42.2</ele>
        <time>2021-05-12T21:52:56Z</time>
      </trkpt>
      <trkpt lat="47.39128" lon="-0.49557">
        <ele>42.2</ele>
        <time>2021-05-12T21:52:57Z</time>
      </trkpt>
      <trkpt lat="47.39129" lon="-0.49564">
        <ele>42.2</ele>
        <time>2021-05-12T21:52:58Z</time>
      </trkpt>
      <trkpt lat="47.39127" lon="-0.49657">
        <ele>41.4</ele>
        <time>2021-05-12T21:53:11Z</time>
      </trkpt>
      <trkpt lat="47.39129" lon="-0.49707">
        <ele>41.2</ele>
        <time>2021-05-12T21:53:17Z</time>
      </trkpt>
      <trkpt lat="47.39133" lon="-0.49752">
        <ele>40.8</ele>
        <time>2021-05-12T21:53:24Z</time>
      </trkpt>
      <trkpt lat="47.39138" lon="-0.49764">
        <ele>40.6</ele>
        <time>2021-05-12T21:53:25Z</time>
      </trkpt>
      <trkpt lat="47.39142" lon="-0.49766">
        <ele>40.4</ele>
        <time>2021-05-12T21:53:26Z</time>
      </trkpt>
      <trkpt lat="47.3921" lon="-0.49739">
        <ele>39.4</ele>
        <time>2021-05-12T21:53:41Z</time>
      </trkpt>
      <trkpt lat="47.39265" lon="-0.49713">
        <ele>38.6</ele>
        <time>2021-05-12T21:53:52Z</time>
      </trkpt>
      <trkpt lat="47.39309" lon="-0.49695">
        <ele>38.8</ele>
        <time>2021-05-12T21:54:01Z</time>
      </trkpt>
      <trkpt lat="47.39314" lon="-0.49692">
        <ele>38.8</ele>
        <time>2021-05-12T21:54:02Z</time>
      </trkpt>
      <trkpt lat="47.3933" lon="-0.49688">
        <ele>39</ele>
        <time>2021-05-12T21:54:06Z</time>
      </trkpt>
      <trkpt lat="47.39381" lon="-0.49694">
        <ele>39</ele>
        <time>2021-05-12T21:54:16Z</time>
      </trkpt>
      <trkpt lat="47.3944" lon="-0.49699">
        <ele>38.8</ele>
        <time>2021-05-12T21:54:28Z</time>
      </trkpt>
      <trkpt lat="47.39587" lon="-0.49675">
        <ele>41.6</ele>
        <time>2021-05-12T21:54:57Z</time>
      </trkpt>
      <trkpt lat="47.39603" lon="-0.49669">
        <ele>42</ele>
        <time>2021-05-12T21:55:01Z</time>
      </trkpt>
      <trkpt lat="47.39643" lon="-0.49642">
        <ele>42</ele>
        <time>2021-05-12T21:55:09Z</time>
      </trkpt>
      <trkpt lat="47.39706" lon="-0.49645">
        <ele>40.6</ele>
        <time>2021-05-12T21:55:22Z</time>
      </trkpt>
      <trkpt lat="47.39863" lon="-0.4965">
        <ele>38</ele>
        <time>2021-05-12T21:55:53Z</time>
      </trkpt>
      <trkpt lat="47.39868" lon="-0.49653">
        <ele>38.2</ele>
        <time>2021-05-12T21:55:54Z</time>
      </trkpt>
      <trkpt lat="47.39884" lon="-0.49673">
        <ele>38.8</ele>
        <time>2021-05-12T21:55:59Z</time>
      </trkpt>
      <trkpt lat="47.39893" lon="-0.49675">
        <ele>38.8</ele>
        <time>2021-05-12T21:56:00Z</time>
      </trkpt>
      <trkpt lat="47.39964" lon="-0.49642">
        <ele>36.2</ele>
        <time>2021-05-12T21:56:15Z</time>
      </trkpt>
      <trkpt lat="47.39978" lon="-0.49638">
        <ele>35.8</ele>
        <time>2021-05-12T21:56:18Z</time>
      </trkpt>
      <trkpt lat="47.39985" lon="-0.49639">
        <ele>35.8</ele>
        <time>2021-05-12T21:56:20Z</time>
      </trkpt>
      <trkpt lat="47.39991" lon="-0.49642">
        <ele>35.6</ele>
        <time>2021-05-12T21:56:21Z</time>
      </trkpt>
      <trkpt lat="47.39998" lon="-0.49647">
        <ele>35.6</ele>
        <time>2021-05-12T21:56:22Z</time>
      </trkpt>
      <trkpt lat="47.4002" lon="-0.49674">
        <ele>36.2</ele>
        <time>2021-05-12T21:56:28Z</time>
      </trkpt>
      <trkpt lat="47.40045" lon="-0.49702">
        <ele>36.8</ele>
        <time>2021-05-12T21:56:34Z</time>
      </trkpt>
      <trkpt lat="47.40051" lon="-0.49706">
        <ele>36.8</ele>
        <time>2021-05-12T21:56:36Z</time>
      </trkpt>
      <trkpt lat="47.401" lon="-0.49754">
        <ele>37.6</ele>
        <time>2021-05-12T21:56:47Z</time>
      </trkpt>
      <trkpt lat="47.40151" lon="-0.49811">
        <ele>37.2</ele>
        <time>2021-05-12T21:57:00Z</time>
      </trkpt>
      <trkpt lat="47.40253" lon="-0.49928">
        <ele>30.2</ele>
        <time>2021-05-12T21:57:26Z</time>
      </trkpt>
      <trkpt lat="47.40299" lon="-0.49983">
        <ele>29</ele>
        <time>2021-05-12T21:57:38Z</time>
      </trkpt>
      <trkpt lat="47.40338" lon="-0.50039">
        <ele>29.6</ele>
        <time>2021-05-12T21:57:49Z</time>
      </trkpt>
      <trkpt lat="47.40351" lon="-0.50056">
        <ele>30</ele>
        <time>2021-05-12T21:57:52Z</time>
      </trkpt>
      <trkpt lat="47.40355" lon="-0.50059">
        <ele>30</ele>
        <time>2021-05-12T21:57:53Z</time>
      </trkpt>
      <trkpt lat="47.4036" lon="-0.50057">
        <ele>30</ele>
        <time>2021-05-12T21:57:54Z</time>
      </trkpt>
      <trkpt lat="47.40365" lon="-0.50058">
        <ele>30.2</ele>
        <time>2021-05-12T21:57:55Z</time>
      </trkpt>
      <trkpt lat="47.40377" lon="-0.50085">
        <ele>31.2</ele>
        <time>2021-05-12T21:58:00Z</time>
      </trkpt>
      <trkpt lat="47.40371" lon="-0.50067">
        <ele>30.4</ele>
        <time>2021-05-12T21:58:03Z</time>
      </trkpt>
      <trkpt lat="47.40362" lon="-0.50055">
        <ele>30</ele>
        <time>2021-05-12T21:58:05Z</time>
      </trkpt>
      <trkpt lat="47.40356" lon="-0.50055">
        <ele>30</ele>
        <time>2021-05-12T21:58:06Z</time>
      </trkpt>
      <trkpt lat="47.40354" lon="-0.50062">
        <ele>30</ele>
        <time>2021-05-12T21:58:07Z</time>
      </trkpt>
      <trkpt lat="47.40357" lon="-0.50073">
        <ele>30.4</ele>
        <time>2021-05-12T21:58:09Z</time>
      </trkpt>
      <trkpt lat="47.40367" lon="-0.5009">
        <ele>31</ele>
        <time>2021-05-12T21:58:12Z</time>
      </trkpt>
      <trkpt lat="47.40388" lon="-0.50133">
        <ele>32.8</ele>
        <time>2021-05-12T21:58:19Z</time>
      </trkpt>
      <trkpt lat="47.40401" lon="-0.50168">
        <ele>33.8</ele>
        <time>2021-05-12T21:58:25Z</time>
      </trkpt>
      <trkpt lat="47.40425" lon="-0.50239">
        <ele>34</ele>
        <time>2021-05-12T21:58:36Z</time>
      </trkpt>
      <trkpt lat="47.40472" lon="-0.50404">
        <ele>32.4</ele>
        <time>2021-05-12T21:59:00Z</time>
      </trkpt>
      <trkpt lat="47.40498" lon="-0.50477">
        <ele>26.6</ele>
        <time>2021-05-12T21:59:11Z</time>
      </trkpt>
      <trkpt lat="47.40529" lon="-0.50542">
        <ele>21.2</ele>
        <time>2021-05-12T21:59:22Z</time>
      </trkpt>
      <trkpt lat="47.40568" lon="-0.50611">
        <ele>20</ele>
        <time>2021-05-12T21:59:34Z</time>
      </trkpt>
      <trkpt lat="47.40583" lon="-0.5063">
        <ele>20</ele>
        <time>2021-05-12T21:59:38Z</time>
      </trkpt>
      <trkpt lat="47.40595" lon="-0.50637">
        <ele>20</ele>
        <time>2021-05-12T21:59:41Z</time>
      </trkpt>
      <trkpt lat="47.40706" lon="-0.50658">
        <ele>19</ele>
        <time>2021-05-12T22:00:03Z</time>
      </trkpt>
      <trkpt lat="47.40771" lon="-0.50672">
        <ele>19</ele>
        <time>2021-05-12T22:00:16Z</time>
      </trkpt>
      <trkpt lat="47.40776" lon="-0.5068">
        <ele>19</ele>
        <time>2021-05-12T22:00:17Z</time>
      </trkpt>
      <trkpt lat="47.40776" lon="-0.50697">
        <ele>19</ele>
        <time>2021-05-12T22:00:20Z</time>
      </trkpt>
      <trkpt lat="47.40775" lon="-0.5076">
        <ele>19</ele>
        <time>2021-05-12T22:00:28Z</time>
      </trkpt>
      <trkpt lat="47.40758" lon="-0.50844">
        <ele>19</ele>
        <time>2021-05-12T22:00:40Z</time>
      </trkpt>
      <trkpt lat="47.40755" lon="-0.50851">
        <ele>19</ele>
        <time>2021-05-12T22:00:41Z</time>
      </trkpt>
      <trkpt lat="47.4075" lon="-0.5086">
        <ele>19</ele>
        <time>2021-05-12T22:00:43Z</time>
      </trkpt>
      <trkpt lat="47.40739" lon="-0.50871">
        <ele>19</ele>
        <time>2021-05-12T22:00:46Z</time>
      </trkpt>
      <trkpt lat="47.40693" lon="-0.50894">
        <ele>19</ele>
        <time>2021-05-12T22:00:56Z</time>
      </trkpt>
      <trkpt lat="47.40606" lon="-0.50925">
        <ele>19.6</ele>
        <time>2021-05-12T22:01:13Z</time>
      </trkpt>
      <trkpt lat="47.40601" lon="-0.50929">
        <ele>19.8</ele>
        <time>2021-05-12T22:01:14Z</time>
      </trkpt>
      <trkpt lat="47.4059" lon="-0.5094">
        <ele>20</ele>
        <time>2021-05-12T22:01:17Z</time>
      </trkpt>
      <trkpt lat="47.40587" lon="-0.50949">
        <ele>20.4</ele>
        <time>2021-05-12T22:01:19Z</time>
      </trkpt>
      <trkpt lat="47.40595" lon="-0.50968">
        <ele>19.6</ele>
        <time>2021-05-12T22:01:22Z</time>
      </trkpt>
      <trkpt lat="47.40601" lon="-0.50973">
        <ele>19.4</ele>
        <time>2021-05-12T22:01:23Z</time>
      </trkpt>
      <trkpt lat="47.40604" lon="-0.50979">
        <ele>19.4</ele>
        <time>2021-05-12T22:01:24Z</time>
      </trkpt>
      <trkpt lat="47.40608" lon="-0.50983">
        <ele>19.2</ele>
        <time>2021-05-12T22:01:25Z</time>
      </trkpt>
      <trkpt lat="47.40612" lon="-0.50986">
        <ele>19.2</ele>
        <time>2021-05-12T22:01:26Z</time>
      </trkpt>
      <trkpt lat="47.40621" lon="-0.50986">
        <ele>19.2</ele>
        <time>2021-05-12T22:01:27Z</time>
      </trkpt>
      <trkpt lat="47.40737" lon="-0.50946">
        <ele>19</ele>
        <time>2021-05-12T22:01:51Z</time>
      </trkpt>
      <trkpt lat="47.40796" lon="-0.50924">
        <ele>19</ele>
        <time>2021-05-12T22:02:03Z</time>
      </trkpt>
      <trkpt lat="47.40806" lon="-0.50923">
        <ele>19</ele>
        <time>2021-05-12T22:02:06Z</time>
      </trkpt>
      <trkpt lat="47.40818" lon="-0.50926">
        <ele>19</ele>
        <time>2021-05-12T22:02:08Z</time>
      </trkpt>
      <trkpt lat="47.40885" lon="-0.50966">
        <ele>19.6</ele>
        <time>2021-05-12T22:02:22Z</time>
      </trkpt>
      <trkpt lat="47.40893" lon="-0.50975">
        <ele>19.6</ele>
        <time>2021-05-12T22:02:24Z</time>
      </trkpt>
      <trkpt lat="47.40899" lon="-0.50986">
        <ele>19.6</ele>
        <time>2021-05-12T22:02:26Z</time>
      </trkpt>
      <trkpt lat="47.40899" lon="-0.51">
        <ele>19.4</ele>
        <time>2021-05-12T22:02:28Z</time>
      </trkpt>
      <trkpt lat="47.40897" lon="-0.51021">
        <ele>19</ele>
        <time>2021-05-12T22:02:31Z</time>
      </trkpt>
      <trkpt lat="47.40885" lon="-0.51071">
        <ele>19</ele>
        <time>2021-05-12T22:02:38Z</time>
      </trkpt>
      <trkpt lat="47.40884" lon="-0.5112">
        <ele>19</ele>
        <time>2021-05-12T22:02:45Z</time>
      </trkpt>
      <trkpt lat="47.40877" lon="-0.51199">
        <ele>19</ele>
        <time>2021-05-12T22:02:56Z</time>
      </trkpt>
      <trkpt lat="47.40871" lon="-0.51246">
        <ele>19</ele>
        <time>2021-05-12T22:03:02Z</time>
      </trkpt>
      <trkpt lat="47.40871" lon="-0.51255">
        <ele>19</ele>
        <time>2021-05-12T22:03:03Z</time>
      </trkpt>
      <trkpt lat="47.40873" lon="-0.51271">
        <ele>19</ele>
        <time>2021-05-12T22:03:06Z</time>
      </trkpt>
      <trkpt lat="47.4088" lon="-0.5131">
        <ele>19</ele>
        <time>2021-05-12T22:03:11Z</time>
      </trkpt>
      <trkpt lat="47.40882" lon="-0.51317">
        <ele>19</ele>
        <time>2021-05-12T22:03:12Z</time>
      </trkpt>
      <trkpt lat="47.40885" lon="-0.51323">
        <ele>19</ele>
        <time>2021-05-12T22:03:13Z</time>
      </trkpt>
      <trkpt lat="47.40893" lon="-0.51332">
        <ele>19</ele>
        <time>2021-05-12T22:03:15Z</time>
      </trkpt>
      <trkpt lat="47.40903" lon="-0.51334">
        <ele>19</ele>
        <time>2021-05-12T22:03:17Z</time>
      </trkpt>
      <trkpt lat="47.40912" lon="-0.51332">
        <ele>19</ele>
        <time>2021-05-12T22:03:19Z</time>
      </trkpt>
      <trkpt lat="47.40928" lon="-0.51319">
        <ele>19</ele>
        <time>2021-05-12T22:03:23Z</time>
      </trkpt>
      <trkpt lat="47.40943" lon="-0.51319">
        <ele>19</ele>
        <time>2021-05-12T22:03:26Z</time>
      </trkpt>
      <trkpt lat="47.40963" lon="-0.51328">
        <ele>19</ele>
        <time>2021-05-12T22:03:30Z</time>
      </trkpt>
      <trkpt lat="47.41021" lon="-0.51351">
        <ele>19</ele>
        <time>2021-05-12T22:03:42Z</time>
      </trkpt>
      <trkpt lat="47.41036" lon="-0.5136">
        <ele>19</ele>
        <time>2021-05-12T22:03:45Z</time>
      </trkpt>
      <trkpt lat="47.4106" lon="-0.51389">
        <ele>19</ele>
        <time>2021-05-12T22:03:51Z</time>
      </trkpt>
      <trkpt lat="47.41079" lon="-0.51401">
        <ele>19</ele>
        <time>2021-05-12T22:03:56Z</time>
      </trkpt>
      <trkpt lat="47.41086" lon="-0.5141">
        <ele>19</ele>
        <time>2021-05-12T22:03:57Z</time>
      </trkpt>
      <trkpt lat="47.41088" lon="-0.51416">
        <ele>19</ele>
        <time>2021-05-12T22:03:58Z</time>
      </trkpt>
      <trkpt lat="47.41089" lon="-0.51422">
        <ele>19</ele>
        <time>2021-05-12T22:03:59Z</time>
      </trkpt>
      <trkpt lat="47.41089" lon="-0.51428">
        <ele>19</ele>
        <time>2021-05-12T22:04:00Z</time>
      </trkpt>
      <trkpt lat="47.41083" lon="-0.51462">
        <ele>19</ele>
        <time>2021-05-12T22:04:05Z</time>
      </trkpt>
      <trkpt lat="47.41085" lon="-0.5147">
        <ele>19</ele>
        <time>2021-05-12T22:04:06Z</time>
      </trkpt>
      <trkpt lat="47.41084" lon="-0.51481">
        <ele>19</ele>
        <time>2021-05-12T22:04:08Z</time>
      </trkpt>
      <trkpt lat="47.41084" lon="-0.51507">
        <ele>19</ele>
        <time>2021-05-12T22:04:11Z</time>
      </trkpt>
      <trkpt lat="47.41072" lon="-0.51572">
        <ele>19</ele>
        <time>2021-05-12T22:04:20Z</time>
      </trkpt>
      <trkpt lat="47.41047" lon="-0.51751">
        <ele>19</ele>
        <time>2021-05-12T22:04:45Z</time>
      </trkpt>
      <trkpt lat="47.41006" lon="-0.52008">
        <ele>18.8</ele>
        <time>2021-05-12T22:05:21Z</time>
      </trkpt>
      <trkpt lat="47.40994" lon="-0.52091">
        <ele>18</ele>
        <time>2021-05-12T22:05:33Z</time>
      </trkpt>
      <trkpt lat="47.40977" lon="-0.52179">
        <ele>18</ele>
        <time>2021-05-12T22:05:45Z</time>
      </trkpt>
      <trkpt lat="47.40957" lon="-0.52263">
        <ele>18</ele>
        <time>2021-05-12T22:05:57Z</time>
      </trkpt>
      <trkpt lat="47.40936" lon="-0.52386">
        <ele>18.4</ele>
        <time>2021-05-12T22:06:14Z</time>
      </trkpt>
      <trkpt lat="47.40921" lon="-0.52422">
        <ele>19</ele>
        <time>2021-05-12T22:06:20Z</time>
      </trkpt>
    </trkseg>
  </trk>
</gpx>